<?xml version="1.0" encoding="UTF-8" standalone="no" ?>
<gpx xmlns="http://www.topografix.com/GPX/1/1" xmlns:xsi="http://www.w3.org/2001/XMLSchema-instance" xsi:schemaLocation="http://www.topografix.com/GPX/1/1 http://www.topografix.com/GPX/1/1/gpx.xsd" version="1.1" creator="VisuGPX - https://www.visugpx.com">
  <metadata>
    <name>Bagnols -Pennafort -Fille d'Isnard</name>
    <desc><![CDATA[avec RA]]></desc>
  </metadata>
  <trk>
    <name><![CDATA[Tour du Lac St Cassien_7]]></name>
    <extensions>
      <line xmlns="http://www.topografix.com/GPX/gpx_style/0/2">
        <color>008800</color>
        <width>4</width>
      </line>
    </extensions>
    <trkseg>
      <trkpt lat="43.57196" lon="6.82741">
        <ele>230.2</ele>
        <time>2025-01-10T08:32:11.000Z</time>
      </trkpt>
      <trkpt lat="43.57192" lon="6.82745">
        <ele>230.4</ele>
        <time>2025-01-10T08:32:10.000Z</time>
      </trkpt>
      <trkpt lat="43.57189" lon="6.82749">
        <ele>230.5</ele>
        <time>2025-01-10T08:32:09.000Z</time>
      </trkpt>
      <trkpt lat="43.57187" lon="6.82753">
        <ele>230.7</ele>
        <time>2025-01-10T08:32:08.000Z</time>
      </trkpt>
      <trkpt lat="43.57185" lon="6.82756">
        <ele>230.8</ele>
        <time>2025-01-10T08:32:07.000Z</time>
      </trkpt>
      <trkpt lat="43.57185" lon="6.82757">
        <ele>230.8</ele>
        <time>2025-01-10T08:32:06.000Z</time>
      </trkpt>
      <trkpt lat="43.57185" lon="6.82757">
        <ele>230.8</ele>
        <time>2025-01-10T08:32:05.000Z</time>
      </trkpt>
      <trkpt lat="43.57185" lon="6.82757">
        <ele>230.8</ele>
        <time>2025-01-10T08:32:04.000Z</time>
      </trkpt>
      <trkpt lat="43.57185" lon="6.82757">
        <ele>230.8</ele>
        <time>2025-01-10T08:32:03.000Z</time>
      </trkpt>
      <trkpt lat="43.57185" lon="6.82757">
        <ele>230.8</ele>
        <time>2025-01-10T08:32:02.000Z</time>
      </trkpt>
      <trkpt lat="43.57185" lon="6.82757">
        <ele>230.8</ele>
        <time>2025-01-10T08:32:01.000Z</time>
      </trkpt>
      <trkpt lat="43.57185" lon="6.82757">
        <ele>230.8</ele>
        <time>2025-01-10T08:32:00.000Z</time>
      </trkpt>
      <trkpt lat="43.57185" lon="6.82757">
        <ele>230.8</ele>
        <time>2025-01-10T08:31:59.000Z</time>
      </trkpt>
      <trkpt lat="43.57185" lon="6.82757">
        <ele>230.8</ele>
        <time>2025-01-10T08:31:58.000Z</time>
      </trkpt>
      <trkpt lat="43.57185" lon="6.82757">
        <ele>230.8</ele>
        <time>2025-01-10T08:31:57.000Z</time>
      </trkpt>
      <trkpt lat="43.57185" lon="6.82757">
        <ele>230.8</ele>
        <time>2025-01-10T08:31:56.000Z</time>
      </trkpt>
      <trkpt lat="43.57185" lon="6.82757">
        <ele>230.8</ele>
        <time>2025-01-10T08:31:55.000Z</time>
      </trkpt>
      <trkpt lat="43.57184" lon="6.82757">
        <ele>230.8</ele>
        <time>2025-01-10T08:31:54.000Z</time>
      </trkpt>
      <trkpt lat="43.57184" lon="6.82757">
        <ele>230.8</ele>
        <time>2025-01-10T08:31:53.000Z</time>
      </trkpt>
      <trkpt lat="43.57184" lon="6.82757">
        <ele>230.8</ele>
        <time>2025-01-10T08:31:52.000Z</time>
      </trkpt>
      <trkpt lat="43.57184" lon="6.82757">
        <ele>230.8</ele>
        <time>2025-01-10T08:31:51.000Z</time>
      </trkpt>
      <trkpt lat="43.57184" lon="6.82756">
        <ele>230.8</ele>
        <time>2025-01-10T08:31:50.000Z</time>
      </trkpt>
      <trkpt lat="43.57184" lon="6.82756">
        <ele>230.8</ele>
        <time>2025-01-10T08:31:49.000Z</time>
      </trkpt>
      <trkpt lat="43.57184" lon="6.82756">
        <ele>230.8</ele>
        <time>2025-01-10T08:31:48.000Z</time>
      </trkpt>
      <trkpt lat="43.57184" lon="6.82756">
        <ele>230.8</ele>
        <time>2025-01-10T08:31:47.000Z</time>
      </trkpt>
      <trkpt lat="43.57184" lon="6.82756">
        <ele>230.9</ele>
        <time>2025-01-10T08:31:46.000Z</time>
      </trkpt>
      <trkpt lat="43.57184" lon="6.82756">
        <ele>230.9</ele>
        <time>2025-01-10T08:31:45.000Z</time>
      </trkpt>
      <trkpt lat="43.57184" lon="6.82756">
        <ele>230.9</ele>
        <time>2025-01-10T08:31:44.000Z</time>
      </trkpt>
      <trkpt lat="43.57184" lon="6.82756">
        <ele>230.9</ele>
        <time>2025-01-10T08:31:43.000Z</time>
      </trkpt>
      <trkpt lat="43.57184" lon="6.82756">
        <ele>230.9</ele>
        <time>2025-01-10T08:31:42.000Z</time>
      </trkpt>
      <trkpt lat="43.57185" lon="6.82756">
        <ele>230.9</ele>
        <time>2025-01-10T08:31:41.000Z</time>
      </trkpt>
      <trkpt lat="43.57185" lon="6.82756">
        <ele>230.9</ele>
        <time>2025-01-10T08:31:40.000Z</time>
      </trkpt>
      <trkpt lat="43.57185" lon="6.82756">
        <ele>230.9</ele>
        <time>2025-01-10T08:31:39.000Z</time>
      </trkpt>
      <trkpt lat="43.57185" lon="6.82756">
        <ele>230.9</ele>
        <time>2025-01-10T08:31:38.000Z</time>
      </trkpt>
      <trkpt lat="43.57185" lon="6.82756">
        <ele>230.9</ele>
        <time>2025-01-10T08:31:37.000Z</time>
      </trkpt>
      <trkpt lat="43.57185" lon="6.82756">
        <ele>230.9</ele>
        <time>2025-01-10T08:31:36.000Z</time>
      </trkpt>
      <trkpt lat="43.57185" lon="6.82756">
        <ele>230.9</ele>
        <time>2025-01-10T08:31:35.000Z</time>
      </trkpt>
      <trkpt lat="43.57185" lon="6.82756">
        <ele>230.9</ele>
        <time>2025-01-10T08:31:34.000Z</time>
      </trkpt>
      <trkpt lat="43.57185" lon="6.82756">
        <ele>230.9</ele>
        <time>2025-01-10T08:31:33.000Z</time>
      </trkpt>
      <trkpt lat="43.57185" lon="6.82756">
        <ele>230.9</ele>
        <time>2025-01-10T08:31:32.000Z</time>
      </trkpt>
      <trkpt lat="43.57185" lon="6.82756">
        <ele>230.9</ele>
        <time>2025-01-10T08:31:31.000Z</time>
      </trkpt>
      <trkpt lat="43.57185" lon="6.82756">
        <ele>230.9</ele>
        <time>2025-01-10T08:31:30.000Z</time>
      </trkpt>
      <trkpt lat="43.57184" lon="6.82756">
        <ele>230.9</ele>
        <time>2025-01-10T08:31:29.000Z</time>
      </trkpt>
      <trkpt lat="43.57184" lon="6.82756">
        <ele>230.9</ele>
        <time>2025-01-10T08:31:28.000Z</time>
      </trkpt>
      <trkpt lat="43.57184" lon="6.82757">
        <ele>231</ele>
        <time>2025-01-10T08:31:27.000Z</time>
      </trkpt>
      <trkpt lat="43.57183" lon="6.82758">
        <ele>231</ele>
        <time>2025-01-10T08:31:26.000Z</time>
      </trkpt>
      <trkpt lat="43.57183" lon="6.82758">
        <ele>231</ele>
        <time>2025-01-10T08:31:25.000Z</time>
      </trkpt>
      <trkpt lat="43.57183" lon="6.82758">
        <ele>231</ele>
        <time>2025-01-10T08:31:24.000Z</time>
      </trkpt>
      <trkpt lat="43.57183" lon="6.82757">
        <ele>231</ele>
        <time>2025-01-10T08:31:23.000Z</time>
      </trkpt>
      <trkpt lat="43.57183" lon="6.82757">
        <ele>231</ele>
        <time>2025-01-10T08:31:22.000Z</time>
      </trkpt>
      <trkpt lat="43.57183" lon="6.82757">
        <ele>231</ele>
        <time>2025-01-10T08:31:21.000Z</time>
      </trkpt>
      <trkpt lat="43.57183" lon="6.82757">
        <ele>231</ele>
        <time>2025-01-10T08:31:20.000Z</time>
      </trkpt>
      <trkpt lat="43.57183" lon="6.82756">
        <ele>231</ele>
        <time>2025-01-10T08:31:19.000Z</time>
      </trkpt>
      <trkpt lat="43.57183" lon="6.82756">
        <ele>231</ele>
        <time>2025-01-10T08:31:18.000Z</time>
      </trkpt>
      <trkpt lat="43.57183" lon="6.82756">
        <ele>231</ele>
        <time>2025-01-10T08:31:17.000Z</time>
      </trkpt>
      <trkpt lat="43.57182" lon="6.82756">
        <ele>231</ele>
        <time>2025-01-10T08:31:16.000Z</time>
      </trkpt>
      <trkpt lat="43.57181" lon="6.82759">
        <ele>231.1</ele>
        <time>2025-01-10T08:31:15.000Z</time>
      </trkpt>
      <trkpt lat="43.57181" lon="6.82759">
        <ele>231.1</ele>
        <time>2025-01-10T08:31:14.000Z</time>
      </trkpt>
      <trkpt lat="43.5718" lon="6.8276">
        <ele>231.2</ele>
        <time>2025-01-10T08:31:13.000Z</time>
      </trkpt>
      <trkpt lat="43.5718" lon="6.82761">
        <ele>231.2</ele>
        <time>2025-01-10T08:31:12.000Z</time>
      </trkpt>
      <trkpt lat="43.57179" lon="6.82761">
        <ele>231.2</ele>
        <time>2025-01-10T08:31:11.000Z</time>
      </trkpt>
      <trkpt lat="43.57178" lon="6.82761">
        <ele>231.3</ele>
        <time>2025-01-10T08:31:10.000Z</time>
      </trkpt>
      <trkpt lat="43.57177" lon="6.82761">
        <ele>231.3</ele>
        <time>2025-01-10T08:31:09.000Z</time>
      </trkpt>
      <trkpt lat="43.57174" lon="6.8276">
        <ele>231.4</ele>
        <time>2025-01-10T08:31:08.000Z</time>
      </trkpt>
      <trkpt lat="43.57171" lon="6.82759">
        <ele>231.5</ele>
        <time>2025-01-10T08:31:07.000Z</time>
      </trkpt>
      <trkpt lat="43.57168" lon="6.82757">
        <ele>231.7</ele>
        <time>2025-01-10T08:31:06.000Z</time>
      </trkpt>
      <trkpt lat="43.57163" lon="6.82755">
        <ele>231.8</ele>
        <time>2025-01-10T08:31:05.000Z</time>
      </trkpt>
      <trkpt lat="43.5716" lon="6.82753">
        <ele>231.9</ele>
        <time>2025-01-10T08:31:04.000Z</time>
      </trkpt>
      <trkpt lat="43.57155" lon="6.82751">
        <ele>231.7</ele>
        <time>2025-01-10T08:31:03.000Z</time>
      </trkpt>
      <trkpt lat="43.57151" lon="6.82749">
        <ele>231.6</ele>
        <time>2025-01-10T08:31:02.000Z</time>
      </trkpt>
      <trkpt lat="43.57146" lon="6.82746">
        <ele>231.4</ele>
        <time>2025-01-10T08:31:01.000Z</time>
      </trkpt>
      <trkpt lat="43.57142" lon="6.82742">
        <ele>231.3</ele>
        <time>2025-01-10T08:31:00.000Z</time>
      </trkpt>
      <trkpt lat="43.57139" lon="6.82739">
        <ele>231.2</ele>
        <time>2025-01-10T08:30:59.000Z</time>
      </trkpt>
      <trkpt lat="43.57135" lon="6.82736">
        <ele>231.1</ele>
        <time>2025-01-10T08:30:58.000Z</time>
      </trkpt>
      <trkpt lat="43.5713" lon="6.82731">
        <ele>231.1</ele>
        <time>2025-01-10T08:30:57.000Z</time>
      </trkpt>
      <trkpt lat="43.57126" lon="6.82727">
        <ele>231</ele>
        <time>2025-01-10T08:30:56.000Z</time>
      </trkpt>
      <trkpt lat="43.57123" lon="6.82723">
        <ele>231</ele>
        <time>2025-01-10T08:30:55.000Z</time>
      </trkpt>
      <trkpt lat="43.57121" lon="6.82719">
        <ele>230.9</ele>
        <time>2025-01-10T08:30:54.000Z</time>
      </trkpt>
      <trkpt lat="43.57118" lon="6.82714">
        <ele>230.9</ele>
        <time>2025-01-10T08:30:53.000Z</time>
      </trkpt>
      <trkpt lat="43.57114" lon="6.82709">
        <ele>230.8</ele>
        <time>2025-01-10T08:30:52.000Z</time>
      </trkpt>
      <trkpt lat="43.57111" lon="6.82704">
        <ele>230.7</ele>
        <time>2025-01-10T08:30:51.000Z</time>
      </trkpt>
      <trkpt lat="43.57109" lon="6.827">
        <ele>230.7</ele>
        <time>2025-01-10T08:30:50.000Z</time>
      </trkpt>
      <trkpt lat="43.57106" lon="6.82695">
        <ele>230.7</ele>
        <time>2025-01-10T08:30:49.000Z</time>
      </trkpt>
      <trkpt lat="43.57103" lon="6.82689">
        <ele>230.7</ele>
        <time>2025-01-10T08:30:48.000Z</time>
      </trkpt>
      <trkpt lat="43.57101" lon="6.82686">
        <ele>230.7</ele>
        <time>2025-01-10T08:30:47.000Z</time>
      </trkpt>
      <trkpt lat="43.57099" lon="6.82681">
        <ele>230.7</ele>
        <time>2025-01-10T08:30:46.000Z</time>
      </trkpt>
      <trkpt lat="43.57097" lon="6.82676">
        <ele>230.7</ele>
        <time>2025-01-10T08:30:45.000Z</time>
      </trkpt>
      <trkpt lat="43.57094" lon="6.82672">
        <ele>230.7</ele>
        <time>2025-01-10T08:30:44.000Z</time>
      </trkpt>
      <trkpt lat="43.57091" lon="6.82666">
        <ele>230.7</ele>
        <time>2025-01-10T08:30:43.000Z</time>
      </trkpt>
      <trkpt lat="43.5709" lon="6.82662">
        <ele>230.7</ele>
        <time>2025-01-10T08:30:42.000Z</time>
      </trkpt>
      <trkpt lat="43.57087" lon="6.82657">
        <ele>230.8</ele>
        <time>2025-01-10T08:30:41.000Z</time>
      </trkpt>
      <trkpt lat="43.57085" lon="6.82652">
        <ele>230.8</ele>
        <time>2025-01-10T08:30:40.000Z</time>
      </trkpt>
      <trkpt lat="43.57083" lon="6.82645">
        <ele>230.9</ele>
        <time>2025-01-10T08:30:39.000Z</time>
      </trkpt>
      <trkpt lat="43.57081" lon="6.8264">
        <ele>231</ele>
        <time>2025-01-10T08:30:38.000Z</time>
      </trkpt>
      <trkpt lat="43.57079" lon="6.82635">
        <ele>231</ele>
        <time>2025-01-10T08:30:37.000Z</time>
      </trkpt>
      <trkpt lat="43.57076" lon="6.82629">
        <ele>231.1</ele>
        <time>2025-01-10T08:30:36.000Z</time>
      </trkpt>
      <trkpt lat="43.57074" lon="6.82622">
        <ele>231.2</ele>
        <time>2025-01-10T08:30:35.000Z</time>
      </trkpt>
      <trkpt lat="43.57072" lon="6.82616">
        <ele>231.3</ele>
        <time>2025-01-10T08:30:34.000Z</time>
      </trkpt>
      <trkpt lat="43.5707" lon="6.82611">
        <ele>231.4</ele>
        <time>2025-01-10T08:30:33.000Z</time>
      </trkpt>
      <trkpt lat="43.57067" lon="6.82606">
        <ele>231.5</ele>
        <time>2025-01-10T08:30:32.000Z</time>
      </trkpt>
      <trkpt lat="43.57065" lon="6.82601">
        <ele>231.5</ele>
        <time>2025-01-10T08:30:31.000Z</time>
      </trkpt>
      <trkpt lat="43.57061" lon="6.82596">
        <ele>231.5</ele>
        <time>2025-01-10T08:30:30.000Z</time>
      </trkpt>
      <trkpt lat="43.57058" lon="6.82592">
        <ele>231.5</ele>
        <time>2025-01-10T08:30:29.000Z</time>
      </trkpt>
      <trkpt lat="43.57056" lon="6.82589">
        <ele>231.5</ele>
        <time>2025-01-10T08:30:28.000Z</time>
      </trkpt>
      <trkpt lat="43.57052" lon="6.82587">
        <ele>231.5</ele>
        <time>2025-01-10T08:30:27.000Z</time>
      </trkpt>
      <trkpt lat="43.57048" lon="6.82585">
        <ele>231.4</ele>
        <time>2025-01-10T08:30:26.000Z</time>
      </trkpt>
      <trkpt lat="43.57043" lon="6.82583">
        <ele>231.3</ele>
        <time>2025-01-10T08:30:25.000Z</time>
      </trkpt>
      <trkpt lat="43.5704" lon="6.82582">
        <ele>231.2</ele>
        <time>2025-01-10T08:30:24.000Z</time>
      </trkpt>
      <trkpt lat="43.57036" lon="6.8258">
        <ele>231</ele>
        <time>2025-01-10T08:30:23.000Z</time>
      </trkpt>
      <trkpt lat="43.57032" lon="6.82577">
        <ele>230.8</ele>
        <time>2025-01-10T08:30:22.000Z</time>
      </trkpt>
      <trkpt lat="43.57029" lon="6.82575">
        <ele>230.6</ele>
        <time>2025-01-10T08:30:21.000Z</time>
      </trkpt>
      <trkpt lat="43.57025" lon="6.82571">
        <ele>230.4</ele>
        <time>2025-01-10T08:30:20.000Z</time>
      </trkpt>
      <trkpt lat="43.57022" lon="6.82568">
        <ele>230.2</ele>
        <time>2025-01-10T08:30:19.000Z</time>
      </trkpt>
      <trkpt lat="43.57018" lon="6.82564">
        <ele>230</ele>
        <time>2025-01-10T08:30:18.000Z</time>
      </trkpt>
      <trkpt lat="43.57014" lon="6.82561">
        <ele>229.7</ele>
        <time>2025-01-10T08:30:17.000Z</time>
      </trkpt>
      <trkpt lat="43.5701" lon="6.82557">
        <ele>229.4</ele>
        <time>2025-01-10T08:30:16.000Z</time>
      </trkpt>
      <trkpt lat="43.57007" lon="6.82555">
        <ele>229.2</ele>
        <time>2025-01-10T08:30:15.000Z</time>
      </trkpt>
      <trkpt lat="43.57003" lon="6.82551">
        <ele>228.9</ele>
        <time>2025-01-10T08:30:14.000Z</time>
      </trkpt>
      <trkpt lat="43.57" lon="6.82548">
        <ele>228.7</ele>
        <time>2025-01-10T08:30:13.000Z</time>
      </trkpt>
      <trkpt lat="43.56997" lon="6.82544">
        <ele>228.4</ele>
        <time>2025-01-10T08:30:12.000Z</time>
      </trkpt>
      <trkpt lat="43.56994" lon="6.8254">
        <ele>228.2</ele>
        <time>2025-01-10T08:30:11.000Z</time>
      </trkpt>
      <trkpt lat="43.5699" lon="6.82537">
        <ele>228</ele>
        <time>2025-01-10T08:30:10.000Z</time>
      </trkpt>
      <trkpt lat="43.56987" lon="6.82533">
        <ele>227.7</ele>
        <time>2025-01-10T08:30:09.000Z</time>
      </trkpt>
      <trkpt lat="43.56983" lon="6.8253">
        <ele>227.4</ele>
        <time>2025-01-10T08:30:08.000Z</time>
      </trkpt>
      <trkpt lat="43.56979" lon="6.82527">
        <ele>227.1</ele>
        <time>2025-01-10T08:30:07.000Z</time>
      </trkpt>
      <trkpt lat="43.56977" lon="6.82524">
        <ele>226.9</ele>
        <time>2025-01-10T08:30:06.000Z</time>
      </trkpt>
      <trkpt lat="43.56973" lon="6.82521">
        <ele>226.7</ele>
        <time>2025-01-10T08:30:05.000Z</time>
      </trkpt>
      <trkpt lat="43.56969" lon="6.82517">
        <ele>226.4</ele>
        <time>2025-01-10T08:30:04.000Z</time>
      </trkpt>
      <trkpt lat="43.56965" lon="6.82513">
        <ele>226</ele>
        <time>2025-01-10T08:30:03.000Z</time>
      </trkpt>
      <trkpt lat="43.56961" lon="6.82509">
        <ele>225.8</ele>
        <time>2025-01-10T08:30:02.000Z</time>
      </trkpt>
      <trkpt lat="43.56958" lon="6.82505">
        <ele>225.5</ele>
        <time>2025-01-10T08:30:01.000Z</time>
      </trkpt>
      <trkpt lat="43.56954" lon="6.825">
        <ele>225.3</ele>
        <time>2025-01-10T08:30:00.000Z</time>
      </trkpt>
      <trkpt lat="43.56949" lon="6.82494">
        <ele>225</ele>
        <time>2025-01-10T08:29:59.000Z</time>
      </trkpt>
      <trkpt lat="43.56947" lon="6.8249">
        <ele>224.9</ele>
        <time>2025-01-10T08:29:58.000Z</time>
      </trkpt>
      <trkpt lat="43.56944" lon="6.82484">
        <ele>224.7</ele>
        <time>2025-01-10T08:29:57.000Z</time>
      </trkpt>
      <trkpt lat="43.56941" lon="6.82479">
        <ele>224.4</ele>
        <time>2025-01-10T08:29:56.000Z</time>
      </trkpt>
      <trkpt lat="43.56938" lon="6.82473">
        <ele>224.2</ele>
        <time>2025-01-10T08:29:55.000Z</time>
      </trkpt>
      <trkpt lat="43.56935" lon="6.82466">
        <ele>224</ele>
        <time>2025-01-10T08:29:54.000Z</time>
      </trkpt>
      <trkpt lat="43.56933" lon="6.82459">
        <ele>223.8</ele>
        <time>2025-01-10T08:29:53.000Z</time>
      </trkpt>
      <trkpt lat="43.56931" lon="6.82453">
        <ele>223.7</ele>
        <time>2025-01-10T08:29:52.000Z</time>
      </trkpt>
      <trkpt lat="43.56928" lon="6.82445">
        <ele>223.5</ele>
        <time>2025-01-10T08:29:51.000Z</time>
      </trkpt>
      <trkpt lat="43.56925" lon="6.8244">
        <ele>223.4</ele>
        <time>2025-01-10T08:29:50.000Z</time>
      </trkpt>
      <trkpt lat="43.56923" lon="6.82436">
        <ele>223.4</ele>
        <time>2025-01-10T08:29:49.000Z</time>
      </trkpt>
      <trkpt lat="43.56919" lon="6.82432">
        <ele>223.3</ele>
        <time>2025-01-10T08:29:48.000Z</time>
      </trkpt>
      <trkpt lat="43.56916" lon="6.82428">
        <ele>223.2</ele>
        <time>2025-01-10T08:29:47.000Z</time>
      </trkpt>
      <trkpt lat="43.56911" lon="6.82423">
        <ele>223.1</ele>
        <time>2025-01-10T08:29:46.000Z</time>
      </trkpt>
      <trkpt lat="43.56908" lon="6.8242">
        <ele>223.1</ele>
        <time>2025-01-10T08:29:45.000Z</time>
      </trkpt>
      <trkpt lat="43.56905" lon="6.82417">
        <ele>223</ele>
        <time>2025-01-10T08:29:44.000Z</time>
      </trkpt>
      <trkpt lat="43.56901" lon="6.82415">
        <ele>223</ele>
        <time>2025-01-10T08:29:43.000Z</time>
      </trkpt>
      <trkpt lat="43.56897" lon="6.82412">
        <ele>222.9</ele>
        <time>2025-01-10T08:29:42.000Z</time>
      </trkpt>
      <trkpt lat="43.56893" lon="6.8241">
        <ele>222.9</ele>
        <time>2025-01-10T08:29:41.000Z</time>
      </trkpt>
      <trkpt lat="43.5689" lon="6.82409">
        <ele>222.9</ele>
        <time>2025-01-10T08:29:40.000Z</time>
      </trkpt>
      <trkpt lat="43.56887" lon="6.82408">
        <ele>222.8</ele>
        <time>2025-01-10T08:29:39.000Z</time>
      </trkpt>
      <trkpt lat="43.56884" lon="6.82407">
        <ele>222.8</ele>
        <time>2025-01-10T08:29:38.000Z</time>
      </trkpt>
      <trkpt lat="43.56881" lon="6.82407">
        <ele>222.8</ele>
        <time>2025-01-10T08:29:37.000Z</time>
      </trkpt>
      <trkpt lat="43.56877" lon="6.82407">
        <ele>222.7</ele>
        <time>2025-01-10T08:29:36.000Z</time>
      </trkpt>
      <trkpt lat="43.56873" lon="6.82406">
        <ele>222.6</ele>
        <time>2025-01-10T08:29:35.000Z</time>
      </trkpt>
      <trkpt lat="43.56869" lon="6.82406">
        <ele>222.5</ele>
        <time>2025-01-10T08:29:34.000Z</time>
      </trkpt>
      <trkpt lat="43.56864" lon="6.82405">
        <ele>222.4</ele>
        <time>2025-01-10T08:29:33.000Z</time>
      </trkpt>
      <trkpt lat="43.56859" lon="6.82404">
        <ele>222.3</ele>
        <time>2025-01-10T08:29:32.000Z</time>
      </trkpt>
      <trkpt lat="43.56856" lon="6.82403">
        <ele>222.2</ele>
        <time>2025-01-10T08:29:31.000Z</time>
      </trkpt>
      <trkpt lat="43.56852" lon="6.82401">
        <ele>222.1</ele>
        <time>2025-01-10T08:29:30.000Z</time>
      </trkpt>
      <trkpt lat="43.56847" lon="6.82399">
        <ele>222</ele>
        <time>2025-01-10T08:29:29.000Z</time>
      </trkpt>
      <trkpt lat="43.56843" lon="6.82398">
        <ele>221.9</ele>
        <time>2025-01-10T08:29:28.000Z</time>
      </trkpt>
      <trkpt lat="43.56838" lon="6.82397">
        <ele>221.8</ele>
        <time>2025-01-10T08:29:27.000Z</time>
      </trkpt>
      <trkpt lat="43.56833" lon="6.82397">
        <ele>221.7</ele>
        <time>2025-01-10T08:29:26.000Z</time>
      </trkpt>
      <trkpt lat="43.56828" lon="6.82397">
        <ele>221.7</ele>
        <time>2025-01-10T08:29:25.000Z</time>
      </trkpt>
      <trkpt lat="43.56821" lon="6.82398">
        <ele>221.6</ele>
        <time>2025-01-10T08:29:24.000Z</time>
      </trkpt>
      <trkpt lat="43.56817" lon="6.82399">
        <ele>221.6</ele>
        <time>2025-01-10T08:29:23.000Z</time>
      </trkpt>
      <trkpt lat="43.56811" lon="6.824">
        <ele>221.5</ele>
        <time>2025-01-10T08:29:22.000Z</time>
      </trkpt>
      <trkpt lat="43.56805" lon="6.82402">
        <ele>221.5</ele>
        <time>2025-01-10T08:29:21.000Z</time>
      </trkpt>
      <trkpt lat="43.56799" lon="6.82404">
        <ele>221.6</ele>
        <time>2025-01-10T08:29:20.000Z</time>
      </trkpt>
      <trkpt lat="43.56794" lon="6.82407">
        <ele>221.8</ele>
        <time>2025-01-10T08:29:19.000Z</time>
      </trkpt>
      <trkpt lat="43.56788" lon="6.82411">
        <ele>222</ele>
        <time>2025-01-10T08:29:18.000Z</time>
      </trkpt>
      <trkpt lat="43.56783" lon="6.82414">
        <ele>222.2</ele>
        <time>2025-01-10T08:29:17.000Z</time>
      </trkpt>
      <trkpt lat="43.56777" lon="6.82417">
        <ele>222.5</ele>
        <time>2025-01-10T08:29:16.000Z</time>
      </trkpt>
      <trkpt lat="43.56771" lon="6.82422">
        <ele>222.7</ele>
        <time>2025-01-10T08:29:15.000Z</time>
      </trkpt>
      <trkpt lat="43.56767" lon="6.82424">
        <ele>222.9</ele>
        <time>2025-01-10T08:29:14.000Z</time>
      </trkpt>
      <trkpt lat="43.56762" lon="6.82428">
        <ele>223.1</ele>
        <time>2025-01-10T08:29:13.000Z</time>
      </trkpt>
      <trkpt lat="43.56757" lon="6.82431">
        <ele>223.3</ele>
        <time>2025-01-10T08:29:12.000Z</time>
      </trkpt>
      <trkpt lat="43.56751" lon="6.82435">
        <ele>223.5</ele>
        <time>2025-01-10T08:29:11.000Z</time>
      </trkpt>
      <trkpt lat="43.56745" lon="6.82437">
        <ele>223.6</ele>
        <time>2025-01-10T08:29:10.000Z</time>
      </trkpt>
      <trkpt lat="43.56741" lon="6.82439">
        <ele>223.8</ele>
        <time>2025-01-10T08:29:09.000Z</time>
      </trkpt>
      <trkpt lat="43.56736" lon="6.82441">
        <ele>223.9</ele>
        <time>2025-01-10T08:29:08.000Z</time>
      </trkpt>
      <trkpt lat="43.56731" lon="6.82444">
        <ele>224.1</ele>
        <time>2025-01-10T08:29:07.000Z</time>
      </trkpt>
      <trkpt lat="43.56725" lon="6.82448">
        <ele>224.3</ele>
        <time>2025-01-10T08:29:06.000Z</time>
      </trkpt>
      <trkpt lat="43.56721" lon="6.8245">
        <ele>224.4</ele>
        <time>2025-01-10T08:29:05.000Z</time>
      </trkpt>
      <trkpt lat="43.56716" lon="6.82453">
        <ele>224.5</ele>
        <time>2025-01-10T08:29:04.000Z</time>
      </trkpt>
      <trkpt lat="43.56711" lon="6.82457">
        <ele>224.6</ele>
        <time>2025-01-10T08:29:03.000Z</time>
      </trkpt>
      <trkpt lat="43.56706" lon="6.82461">
        <ele>224.7</ele>
        <time>2025-01-10T08:29:02.000Z</time>
      </trkpt>
      <trkpt lat="43.56701" lon="6.82465">
        <ele>224.8</ele>
        <time>2025-01-10T08:29:01.000Z</time>
      </trkpt>
      <trkpt lat="43.56695" lon="6.8247">
        <ele>224.9</ele>
        <time>2025-01-10T08:29:00.000Z</time>
      </trkpt>
      <trkpt lat="43.5669" lon="6.82476">
        <ele>225.1</ele>
        <time>2025-01-10T08:28:59.000Z</time>
      </trkpt>
      <trkpt lat="43.56686" lon="6.82479">
        <ele>225.2</ele>
        <time>2025-01-10T08:28:58.000Z</time>
      </trkpt>
      <trkpt lat="43.56682" lon="6.82484">
        <ele>225.4</ele>
        <time>2025-01-10T08:28:57.000Z</time>
      </trkpt>
      <trkpt lat="43.56677" lon="6.82488">
        <ele>225.6</ele>
        <time>2025-01-10T08:28:56.000Z</time>
      </trkpt>
      <trkpt lat="43.56672" lon="6.82493">
        <ele>225.9</ele>
        <time>2025-01-10T08:28:55.000Z</time>
      </trkpt>
      <trkpt lat="43.56667" lon="6.82498">
        <ele>226.1</ele>
        <time>2025-01-10T08:28:54.000Z</time>
      </trkpt>
      <trkpt lat="43.56661" lon="6.82503">
        <ele>226.4</ele>
        <time>2025-01-10T08:28:53.000Z</time>
      </trkpt>
      <trkpt lat="43.56656" lon="6.82508">
        <ele>226.7</ele>
        <time>2025-01-10T08:28:52.000Z</time>
      </trkpt>
      <trkpt lat="43.56652" lon="6.82511">
        <ele>226.9</ele>
        <time>2025-01-10T08:28:51.000Z</time>
      </trkpt>
      <trkpt lat="43.56648" lon="6.82515">
        <ele>227.2</ele>
        <time>2025-01-10T08:28:50.000Z</time>
      </trkpt>
      <trkpt lat="43.56643" lon="6.82518">
        <ele>227.5</ele>
        <time>2025-01-10T08:28:49.000Z</time>
      </trkpt>
      <trkpt lat="43.56639" lon="6.8252">
        <ele>227.7</ele>
        <time>2025-01-10T08:28:48.000Z</time>
      </trkpt>
      <trkpt lat="43.56634" lon="6.82522">
        <ele>227.9</ele>
        <time>2025-01-10T08:28:47.000Z</time>
      </trkpt>
      <trkpt lat="43.56631" lon="6.82524">
        <ele>228</ele>
        <time>2025-01-10T08:28:46.000Z</time>
      </trkpt>
      <trkpt lat="43.56627" lon="6.82524">
        <ele>228.1</ele>
        <time>2025-01-10T08:28:45.000Z</time>
      </trkpt>
      <trkpt lat="43.56622" lon="6.82525">
        <ele>228.2</ele>
        <time>2025-01-10T08:28:44.000Z</time>
      </trkpt>
      <trkpt lat="43.56618" lon="6.82525">
        <ele>228.3</ele>
        <time>2025-01-10T08:28:43.000Z</time>
      </trkpt>
      <trkpt lat="43.56615" lon="6.82524">
        <ele>228.4</ele>
        <time>2025-01-10T08:28:42.000Z</time>
      </trkpt>
      <trkpt lat="43.5661" lon="6.82521">
        <ele>228.4</ele>
        <time>2025-01-10T08:28:41.000Z</time>
      </trkpt>
      <trkpt lat="43.56607" lon="6.82518">
        <ele>228.4</ele>
        <time>2025-01-10T08:28:40.000Z</time>
      </trkpt>
      <trkpt lat="43.56603" lon="6.82512">
        <ele>228.4</ele>
        <time>2025-01-10T08:28:39.000Z</time>
      </trkpt>
      <trkpt lat="43.566" lon="6.82508">
        <ele>228.4</ele>
        <time>2025-01-10T08:28:38.000Z</time>
      </trkpt>
      <trkpt lat="43.56596" lon="6.82503">
        <ele>228.5</ele>
        <time>2025-01-10T08:28:37.000Z</time>
      </trkpt>
      <trkpt lat="43.56593" lon="6.82497">
        <ele>228.6</ele>
        <time>2025-01-10T08:28:36.000Z</time>
      </trkpt>
      <trkpt lat="43.56589" lon="6.8249">
        <ele>228.8</ele>
        <time>2025-01-10T08:28:35.000Z</time>
      </trkpt>
      <trkpt lat="43.56587" lon="6.82485">
        <ele>228.9</ele>
        <time>2025-01-10T08:28:34.000Z</time>
      </trkpt>
      <trkpt lat="43.56584" lon="6.82479">
        <ele>229</ele>
        <time>2025-01-10T08:28:33.000Z</time>
      </trkpt>
      <trkpt lat="43.56581" lon="6.82473">
        <ele>229.2</ele>
        <time>2025-01-10T08:28:32.000Z</time>
      </trkpt>
      <trkpt lat="43.56578" lon="6.82468">
        <ele>229.4</ele>
        <time>2025-01-10T08:28:31.000Z</time>
      </trkpt>
      <trkpt lat="43.56575" lon="6.82461">
        <ele>229.6</ele>
        <time>2025-01-10T08:28:30.000Z</time>
      </trkpt>
      <trkpt lat="43.56573" lon="6.82457">
        <ele>229.8</ele>
        <time>2025-01-10T08:28:29.000Z</time>
      </trkpt>
      <trkpt lat="43.56571" lon="6.82452">
        <ele>229.9</ele>
        <time>2025-01-10T08:28:28.000Z</time>
      </trkpt>
      <trkpt lat="43.56568" lon="6.82447">
        <ele>230.1</ele>
        <time>2025-01-10T08:28:27.000Z</time>
      </trkpt>
      <trkpt lat="43.56565" lon="6.82443">
        <ele>230.3</ele>
        <time>2025-01-10T08:28:26.000Z</time>
      </trkpt>
      <trkpt lat="43.56563" lon="6.82441">
        <ele>230.3</ele>
        <time>2025-01-10T08:28:25.000Z</time>
      </trkpt>
      <trkpt lat="43.56562" lon="6.82439">
        <ele>230.4</ele>
        <time>2025-01-10T08:28:24.000Z</time>
      </trkpt>
      <trkpt lat="43.56561" lon="6.82439">
        <ele>230.4</ele>
        <time>2025-01-10T08:28:23.000Z</time>
      </trkpt>
      <trkpt lat="43.56561" lon="6.82438">
        <ele>230.5</ele>
        <time>2025-01-10T08:28:22.000Z</time>
      </trkpt>
      <trkpt lat="43.56561" lon="6.82438">
        <ele>230.5</ele>
        <time>2025-01-10T08:28:21.000Z</time>
      </trkpt>
      <trkpt lat="43.5656" lon="6.82437">
        <ele>230.5</ele>
        <time>2025-01-10T08:28:20.000Z</time>
      </trkpt>
      <trkpt lat="43.5656" lon="6.82437">
        <ele>230.5</ele>
        <time>2025-01-10T08:28:19.000Z</time>
      </trkpt>
      <trkpt lat="43.5656" lon="6.82436">
        <ele>230.5</ele>
        <time>2025-01-10T08:28:18.000Z</time>
      </trkpt>
      <trkpt lat="43.5656" lon="6.82436">
        <ele>230.6</ele>
        <time>2025-01-10T08:28:17.000Z</time>
      </trkpt>
      <trkpt lat="43.5656" lon="6.82436">
        <ele>230.6</ele>
        <time>2025-01-10T08:28:16.000Z</time>
      </trkpt>
      <trkpt lat="43.5656" lon="6.82436">
        <ele>230.6</ele>
        <time>2025-01-10T08:28:15.000Z</time>
      </trkpt>
      <trkpt lat="43.5656" lon="6.82436">
        <ele>230.6</ele>
        <time>2025-01-10T08:28:14.000Z</time>
      </trkpt>
      <trkpt lat="43.56559" lon="6.82436">
        <ele>230.6</ele>
        <time>2025-01-10T08:28:13.000Z</time>
      </trkpt>
      <trkpt lat="43.56559" lon="6.82436">
        <ele>230.6</ele>
        <time>2025-01-10T08:28:12.000Z</time>
      </trkpt>
      <trkpt lat="43.56559" lon="6.82436">
        <ele>230.6</ele>
        <time>2025-01-10T08:28:11.000Z</time>
      </trkpt>
      <trkpt lat="43.56559" lon="6.82435">
        <ele>230.6</ele>
        <time>2025-01-10T08:28:10.000Z</time>
      </trkpt>
      <trkpt lat="43.56558" lon="6.82434">
        <ele>230.6</ele>
        <time>2025-01-10T08:28:09.000Z</time>
      </trkpt>
      <trkpt lat="43.56556" lon="6.82431">
        <ele>230.7</ele>
        <time>2025-01-10T08:28:08.000Z</time>
      </trkpt>
      <trkpt lat="43.56554" lon="6.82428">
        <ele>230.8</ele>
        <time>2025-01-10T08:28:07.000Z</time>
      </trkpt>
      <trkpt lat="43.56552" lon="6.82424">
        <ele>231</ele>
        <time>2025-01-10T08:28:06.000Z</time>
      </trkpt>
      <trkpt lat="43.56549" lon="6.8242">
        <ele>231.1</ele>
        <time>2025-01-10T08:28:05.000Z</time>
      </trkpt>
      <trkpt lat="43.56547" lon="6.82416">
        <ele>231.2</ele>
        <time>2025-01-10T08:28:04.000Z</time>
      </trkpt>
      <trkpt lat="43.56544" lon="6.82413">
        <ele>231.3</ele>
        <time>2025-01-10T08:28:03.000Z</time>
      </trkpt>
      <trkpt lat="43.56541" lon="6.82409">
        <ele>231.4</ele>
        <time>2025-01-10T08:28:02.000Z</time>
      </trkpt>
      <trkpt lat="43.56539" lon="6.82404">
        <ele>231.5</ele>
        <time>2025-01-10T08:28:01.000Z</time>
      </trkpt>
      <trkpt lat="43.56536" lon="6.82401">
        <ele>231.6</ele>
        <time>2025-01-10T08:28:00.000Z</time>
      </trkpt>
      <trkpt lat="43.56533" lon="6.82396">
        <ele>231.8</ele>
        <time>2025-01-10T08:27:59.000Z</time>
      </trkpt>
      <trkpt lat="43.5653" lon="6.82391">
        <ele>231.9</ele>
        <time>2025-01-10T08:27:58.000Z</time>
      </trkpt>
      <trkpt lat="43.56527" lon="6.82387">
        <ele>232</ele>
        <time>2025-01-10T08:27:57.000Z</time>
      </trkpt>
      <trkpt lat="43.56525" lon="6.82382">
        <ele>232.1</ele>
        <time>2025-01-10T08:27:56.000Z</time>
      </trkpt>
      <trkpt lat="43.56522" lon="6.82377">
        <ele>232.2</ele>
        <time>2025-01-10T08:27:55.000Z</time>
      </trkpt>
      <trkpt lat="43.5652" lon="6.82371">
        <ele>232.3</ele>
        <time>2025-01-10T08:27:54.000Z</time>
      </trkpt>
      <trkpt lat="43.56518" lon="6.82365">
        <ele>232.5</ele>
        <time>2025-01-10T08:27:53.000Z</time>
      </trkpt>
      <trkpt lat="43.56517" lon="6.82359">
        <ele>232.6</ele>
        <time>2025-01-10T08:27:52.000Z</time>
      </trkpt>
      <trkpt lat="43.56516" lon="6.82354">
        <ele>232.7</ele>
        <time>2025-01-10T08:27:51.000Z</time>
      </trkpt>
      <trkpt lat="43.56515" lon="6.82346">
        <ele>232.9</ele>
        <time>2025-01-10T08:27:50.000Z</time>
      </trkpt>
      <trkpt lat="43.56514" lon="6.82342">
        <ele>233</ele>
        <time>2025-01-10T08:27:49.000Z</time>
      </trkpt>
      <trkpt lat="43.56513" lon="6.82337">
        <ele>233.2</ele>
        <time>2025-01-10T08:27:48.000Z</time>
      </trkpt>
      <trkpt lat="43.56513" lon="6.82332">
        <ele>233.3</ele>
        <time>2025-01-10T08:27:47.000Z</time>
      </trkpt>
      <trkpt lat="43.56513" lon="6.82328">
        <ele>233.4</ele>
        <time>2025-01-10T08:27:46.000Z</time>
      </trkpt>
      <trkpt lat="43.56513" lon="6.82325">
        <ele>233.5</ele>
        <time>2025-01-10T08:27:45.000Z</time>
      </trkpt>
      <trkpt lat="43.56513" lon="6.82325">
        <ele>233.6</ele>
        <time>2025-01-10T08:27:44.000Z</time>
      </trkpt>
      <trkpt lat="43.56513" lon="6.82325">
        <ele>233.6</ele>
        <time>2025-01-10T08:27:43.000Z</time>
      </trkpt>
      <trkpt lat="43.56512" lon="6.82325">
        <ele>233.6</ele>
        <time>2025-01-10T08:27:42.000Z</time>
      </trkpt>
      <trkpt lat="43.56512" lon="6.82325">
        <ele>233.6</ele>
        <time>2025-01-10T08:27:41.000Z</time>
      </trkpt>
      <trkpt lat="43.56512" lon="6.82325">
        <ele>233.6</ele>
        <time>2025-01-10T08:27:40.000Z</time>
      </trkpt>
      <trkpt lat="43.56512" lon="6.82325">
        <ele>233.6</ele>
        <time>2025-01-10T08:27:39.000Z</time>
      </trkpt>
      <trkpt lat="43.56512" lon="6.82325">
        <ele>233.6</ele>
        <time>2025-01-10T08:27:38.000Z</time>
      </trkpt>
      <trkpt lat="43.56512" lon="6.82325">
        <ele>233.6</ele>
        <time>2025-01-10T08:27:37.000Z</time>
      </trkpt>
      <trkpt lat="43.56512" lon="6.82325">
        <ele>233.6</ele>
        <time>2025-01-10T08:27:36.000Z</time>
      </trkpt>
      <trkpt lat="43.56512" lon="6.82325">
        <ele>233.6</ele>
        <time>2025-01-10T08:27:35.000Z</time>
      </trkpt>
      <trkpt lat="43.56512" lon="6.82325">
        <ele>233.6</ele>
        <time>2025-01-10T08:27:34.000Z</time>
      </trkpt>
      <trkpt lat="43.56512" lon="6.82325">
        <ele>233.6</ele>
        <time>2025-01-10T08:27:33.000Z</time>
      </trkpt>
      <trkpt lat="43.56512" lon="6.82325">
        <ele>233.6</ele>
        <time>2025-01-10T08:27:32.000Z</time>
      </trkpt>
      <trkpt lat="43.56512" lon="6.82325">
        <ele>233.6</ele>
        <time>2025-01-10T08:27:31.000Z</time>
      </trkpt>
      <trkpt lat="43.56512" lon="6.82325">
        <ele>233.6</ele>
        <time>2025-01-10T08:27:30.000Z</time>
      </trkpt>
      <trkpt lat="43.56512" lon="6.82325">
        <ele>233.6</ele>
        <time>2025-01-10T08:27:29.000Z</time>
      </trkpt>
      <trkpt lat="43.56512" lon="6.82325">
        <ele>233.6</ele>
        <time>2025-01-10T08:27:28.000Z</time>
      </trkpt>
      <trkpt lat="43.56512" lon="6.82325">
        <ele>233.6</ele>
        <time>2025-01-10T08:27:27.000Z</time>
      </trkpt>
      <trkpt lat="43.56512" lon="6.82325">
        <ele>233.6</ele>
        <time>2025-01-10T08:27:26.000Z</time>
      </trkpt>
      <trkpt lat="43.56512" lon="6.82325">
        <ele>233.6</ele>
        <time>2025-01-10T08:27:25.000Z</time>
      </trkpt>
      <trkpt lat="43.56512" lon="6.82325">
        <ele>233.6</ele>
        <time>2025-01-10T08:27:24.000Z</time>
      </trkpt>
      <trkpt lat="43.56512" lon="6.82325">
        <ele>233.6</ele>
        <time>2025-01-10T08:27:23.000Z</time>
      </trkpt>
      <trkpt lat="43.56512" lon="6.82325">
        <ele>233.6</ele>
        <time>2025-01-10T08:27:22.000Z</time>
      </trkpt>
      <trkpt lat="43.56512" lon="6.82325">
        <ele>233.6</ele>
        <time>2025-01-10T08:27:21.000Z</time>
      </trkpt>
      <trkpt lat="43.56512" lon="6.82325">
        <ele>233.6</ele>
        <time>2025-01-10T08:27:20.000Z</time>
      </trkpt>
      <trkpt lat="43.56512" lon="6.82325">
        <ele>233.6</ele>
        <time>2025-01-10T08:27:19.000Z</time>
      </trkpt>
      <trkpt lat="43.56512" lon="6.82325">
        <ele>233.6</ele>
        <time>2025-01-10T08:27:18.000Z</time>
      </trkpt>
      <trkpt lat="43.56512" lon="6.82325">
        <ele>233.6</ele>
        <time>2025-01-10T08:27:17.000Z</time>
      </trkpt>
      <trkpt lat="43.56512" lon="6.82325">
        <ele>233.6</ele>
        <time>2025-01-10T08:27:16.000Z</time>
      </trkpt>
      <trkpt lat="43.56512" lon="6.82325">
        <ele>233.6</ele>
        <time>2025-01-10T08:27:15.000Z</time>
      </trkpt>
      <trkpt lat="43.56512" lon="6.82325">
        <ele>233.6</ele>
        <time>2025-01-10T08:27:14.000Z</time>
      </trkpt>
      <trkpt lat="43.56512" lon="6.82324">
        <ele>233.7</ele>
        <time>2025-01-10T08:27:13.000Z</time>
      </trkpt>
      <trkpt lat="43.56512" lon="6.82324">
        <ele>233.7</ele>
        <time>2025-01-10T08:27:12.000Z</time>
      </trkpt>
      <trkpt lat="43.56512" lon="6.82324">
        <ele>233.7</ele>
        <time>2025-01-10T08:27:11.000Z</time>
      </trkpt>
      <trkpt lat="43.56512" lon="6.82324">
        <ele>233.7</ele>
        <time>2025-01-10T08:27:10.000Z</time>
      </trkpt>
      <trkpt lat="43.56512" lon="6.82324">
        <ele>233.7</ele>
        <time>2025-01-10T08:27:09.000Z</time>
      </trkpt>
      <trkpt lat="43.56512" lon="6.82324">
        <ele>233.7</ele>
        <time>2025-01-10T08:27:08.000Z</time>
      </trkpt>
      <trkpt lat="43.56512" lon="6.82324">
        <ele>233.7</ele>
        <time>2025-01-10T08:27:07.000Z</time>
      </trkpt>
      <trkpt lat="43.56512" lon="6.82324">
        <ele>233.7</ele>
        <time>2025-01-10T08:27:06.000Z</time>
      </trkpt>
      <trkpt lat="43.56512" lon="6.82324">
        <ele>233.7</ele>
        <time>2025-01-10T08:27:05.000Z</time>
      </trkpt>
      <trkpt lat="43.56512" lon="6.82324">
        <ele>233.7</ele>
        <time>2025-01-10T08:27:04.000Z</time>
      </trkpt>
      <trkpt lat="43.56512" lon="6.82324">
        <ele>233.7</ele>
        <time>2025-01-10T08:27:03.000Z</time>
      </trkpt>
      <trkpt lat="43.56512" lon="6.82324">
        <ele>233.7</ele>
        <time>2025-01-10T08:27:02.000Z</time>
      </trkpt>
      <trkpt lat="43.56512" lon="6.82324">
        <ele>233.7</ele>
        <time>2025-01-10T08:27:01.000Z</time>
      </trkpt>
      <trkpt lat="43.56513" lon="6.82324">
        <ele>233.7</ele>
        <time>2025-01-10T08:27:00.000Z</time>
      </trkpt>
      <trkpt lat="43.56513" lon="6.82324">
        <ele>233.7</ele>
        <time>2025-01-10T08:26:59.000Z</time>
      </trkpt>
      <trkpt lat="43.56513" lon="6.82324">
        <ele>233.7</ele>
        <time>2025-01-10T08:26:58.000Z</time>
      </trkpt>
      <trkpt lat="43.56513" lon="6.82324">
        <ele>233.7</ele>
        <time>2025-01-10T08:26:57.000Z</time>
      </trkpt>
      <trkpt lat="43.56513" lon="6.82324">
        <ele>233.7</ele>
        <time>2025-01-10T08:26:56.000Z</time>
      </trkpt>
      <trkpt lat="43.56513" lon="6.82324">
        <ele>233.7</ele>
        <time>2025-01-10T08:26:55.000Z</time>
      </trkpt>
      <trkpt lat="43.56513" lon="6.82324">
        <ele>233.7</ele>
        <time>2025-01-10T08:26:54.000Z</time>
      </trkpt>
      <trkpt lat="43.56513" lon="6.82324">
        <ele>233.7</ele>
        <time>2025-01-10T08:26:53.000Z</time>
      </trkpt>
      <trkpt lat="43.56513" lon="6.82324">
        <ele>233.7</ele>
        <time>2025-01-10T08:26:52.000Z</time>
      </trkpt>
      <trkpt lat="43.56513" lon="6.82324">
        <ele>233.7</ele>
        <time>2025-01-10T08:26:51.000Z</time>
      </trkpt>
      <trkpt lat="43.56513" lon="6.82324">
        <ele>233.7</ele>
        <time>2025-01-10T08:26:50.000Z</time>
      </trkpt>
      <trkpt lat="43.56513" lon="6.82324">
        <ele>233.7</ele>
        <time>2025-01-10T08:26:49.000Z</time>
      </trkpt>
      <trkpt lat="43.56513" lon="6.82324">
        <ele>233.7</ele>
        <time>2025-01-10T08:26:48.000Z</time>
      </trkpt>
      <trkpt lat="43.56513" lon="6.82324">
        <ele>233.7</ele>
        <time>2025-01-10T08:26:47.000Z</time>
      </trkpt>
      <trkpt lat="43.56513" lon="6.82324">
        <ele>233.7</ele>
        <time>2025-01-10T08:26:46.000Z</time>
      </trkpt>
      <trkpt lat="43.56513" lon="6.82324">
        <ele>233.7</ele>
        <time>2025-01-10T08:26:45.000Z</time>
      </trkpt>
      <trkpt lat="43.56513" lon="6.82324">
        <ele>233.7</ele>
        <time>2025-01-10T08:26:44.000Z</time>
      </trkpt>
      <trkpt lat="43.56513" lon="6.82324">
        <ele>233.7</ele>
        <time>2025-01-10T08:26:43.000Z</time>
      </trkpt>
      <trkpt lat="43.56513" lon="6.82324">
        <ele>233.7</ele>
        <time>2025-01-10T08:26:42.000Z</time>
      </trkpt>
      <trkpt lat="43.56513" lon="6.82324">
        <ele>233.7</ele>
        <time>2025-01-10T08:26:41.000Z</time>
      </trkpt>
      <trkpt lat="43.56513" lon="6.82325">
        <ele>233.7</ele>
        <time>2025-01-10T08:26:40.000Z</time>
      </trkpt>
      <trkpt lat="43.56513" lon="6.82325">
        <ele>233.7</ele>
        <time>2025-01-10T08:26:39.000Z</time>
      </trkpt>
      <trkpt lat="43.56514" lon="6.82325">
        <ele>233.7</ele>
        <time>2025-01-10T08:26:38.000Z</time>
      </trkpt>
      <trkpt lat="43.56514" lon="6.82325">
        <ele>233.7</ele>
        <time>2025-01-10T08:26:37.000Z</time>
      </trkpt>
      <trkpt lat="43.56515" lon="6.82325">
        <ele>233.7</ele>
        <time>2025-01-10T08:26:36.000Z</time>
      </trkpt>
      <trkpt lat="43.56515" lon="6.82325">
        <ele>233.8</ele>
        <time>2025-01-10T08:26:35.000Z</time>
      </trkpt>
      <trkpt lat="43.56516" lon="6.82326">
        <ele>233.8</ele>
        <time>2025-01-10T08:26:34.000Z</time>
      </trkpt>
      <trkpt lat="43.56517" lon="6.82325">
        <ele>233.8</ele>
        <time>2025-01-10T08:26:33.000Z</time>
      </trkpt>
      <trkpt lat="43.56517" lon="6.82325">
        <ele>233.8</ele>
        <time>2025-01-10T08:26:32.000Z</time>
      </trkpt>
      <trkpt lat="43.56517" lon="6.82326">
        <ele>233.8</ele>
        <time>2025-01-10T08:26:31.000Z</time>
      </trkpt>
      <trkpt lat="43.56515" lon="6.82326">
        <ele>233.8</ele>
        <time>2025-01-10T08:26:30.000Z</time>
      </trkpt>
      <trkpt lat="43.56512" lon="6.82327">
        <ele>233.8</ele>
        <time>2025-01-10T08:26:29.000Z</time>
      </trkpt>
      <trkpt lat="43.56509" lon="6.82327">
        <ele>233.9</ele>
        <time>2025-01-10T08:26:28.000Z</time>
      </trkpt>
      <trkpt lat="43.56505" lon="6.82328">
        <ele>233.9</ele>
        <time>2025-01-10T08:26:27.000Z</time>
      </trkpt>
      <trkpt lat="43.56502" lon="6.82329">
        <ele>233.9</ele>
        <time>2025-01-10T08:26:26.000Z</time>
      </trkpt>
      <trkpt lat="43.565" lon="6.8233">
        <ele>233.9</ele>
        <time>2025-01-10T08:26:25.000Z</time>
      </trkpt>
      <trkpt lat="43.56496" lon="6.82332">
        <ele>233.9</ele>
        <time>2025-01-10T08:26:24.000Z</time>
      </trkpt>
      <trkpt lat="43.56491" lon="6.82333">
        <ele>233.9</ele>
        <time>2025-01-10T08:26:23.000Z</time>
      </trkpt>
      <trkpt lat="43.56487" lon="6.82334">
        <ele>234</ele>
        <time>2025-01-10T08:26:22.000Z</time>
      </trkpt>
      <trkpt lat="43.56483" lon="6.82335">
        <ele>234</ele>
        <time>2025-01-10T08:26:21.000Z</time>
      </trkpt>
      <trkpt lat="43.56478" lon="6.82337">
        <ele>234</ele>
        <time>2025-01-10T08:26:20.000Z</time>
      </trkpt>
      <trkpt lat="43.56473" lon="6.82338">
        <ele>234.1</ele>
        <time>2025-01-10T08:26:19.000Z</time>
      </trkpt>
      <trkpt lat="43.56469" lon="6.82339">
        <ele>234.1</ele>
        <time>2025-01-10T08:26:18.000Z</time>
      </trkpt>
      <trkpt lat="43.56463" lon="6.8234">
        <ele>234.2</ele>
        <time>2025-01-10T08:26:17.000Z</time>
      </trkpt>
      <trkpt lat="43.56459" lon="6.82341">
        <ele>234.3</ele>
        <time>2025-01-10T08:26:16.000Z</time>
      </trkpt>
      <trkpt lat="43.56453" lon="6.82341">
        <ele>234.4</ele>
        <time>2025-01-10T08:26:15.000Z</time>
      </trkpt>
      <trkpt lat="43.56448" lon="6.82342">
        <ele>234.5</ele>
        <time>2025-01-10T08:26:14.000Z</time>
      </trkpt>
      <trkpt lat="43.56443" lon="6.82343">
        <ele>234.6</ele>
        <time>2025-01-10T08:26:13.000Z</time>
      </trkpt>
      <trkpt lat="43.56437" lon="6.82343">
        <ele>234.8</ele>
        <time>2025-01-10T08:26:12.000Z</time>
      </trkpt>
      <trkpt lat="43.56432" lon="6.82342">
        <ele>234.9</ele>
        <time>2025-01-10T08:26:11.000Z</time>
      </trkpt>
      <trkpt lat="43.56428" lon="6.82342">
        <ele>235</ele>
        <time>2025-01-10T08:26:10.000Z</time>
      </trkpt>
      <trkpt lat="43.56423" lon="6.82342">
        <ele>235.1</ele>
        <time>2025-01-10T08:26:09.000Z</time>
      </trkpt>
      <trkpt lat="43.56417" lon="6.82341">
        <ele>235.3</ele>
        <time>2025-01-10T08:26:08.000Z</time>
      </trkpt>
      <trkpt lat="43.56412" lon="6.82341">
        <ele>235.4</ele>
        <time>2025-01-10T08:26:07.000Z</time>
      </trkpt>
      <trkpt lat="43.56406" lon="6.82341">
        <ele>235.6</ele>
        <time>2025-01-10T08:26:06.000Z</time>
      </trkpt>
      <trkpt lat="43.56401" lon="6.8234">
        <ele>235.8</ele>
        <time>2025-01-10T08:26:05.000Z</time>
      </trkpt>
      <trkpt lat="43.56394" lon="6.8234">
        <ele>235.9</ele>
        <time>2025-01-10T08:26:04.000Z</time>
      </trkpt>
      <trkpt lat="43.5639" lon="6.8234">
        <ele>236.1</ele>
        <time>2025-01-10T08:26:03.000Z</time>
      </trkpt>
      <trkpt lat="43.56385" lon="6.82339">
        <ele>236.2</ele>
        <time>2025-01-10T08:26:02.000Z</time>
      </trkpt>
      <trkpt lat="43.56379" lon="6.82339">
        <ele>236.4</ele>
        <time>2025-01-10T08:26:01.000Z</time>
      </trkpt>
      <trkpt lat="43.56374" lon="6.82339">
        <ele>236.6</ele>
        <time>2025-01-10T08:26:00.000Z</time>
      </trkpt>
      <trkpt lat="43.56368" lon="6.82339">
        <ele>236.9</ele>
        <time>2025-01-10T08:25:59.000Z</time>
      </trkpt>
      <trkpt lat="43.56362" lon="6.8234">
        <ele>237.1</ele>
        <time>2025-01-10T08:25:58.000Z</time>
      </trkpt>
      <trkpt lat="43.56357" lon="6.8234">
        <ele>237.3</ele>
        <time>2025-01-10T08:25:57.000Z</time>
      </trkpt>
      <trkpt lat="43.56352" lon="6.82341">
        <ele>237.5</ele>
        <time>2025-01-10T08:25:56.000Z</time>
      </trkpt>
      <trkpt lat="43.56346" lon="6.82343">
        <ele>237.8</ele>
        <time>2025-01-10T08:25:55.000Z</time>
      </trkpt>
      <trkpt lat="43.56342" lon="6.82344">
        <ele>238</ele>
        <time>2025-01-10T08:25:54.000Z</time>
      </trkpt>
      <trkpt lat="43.56337" lon="6.82345">
        <ele>238.2</ele>
        <time>2025-01-10T08:25:53.000Z</time>
      </trkpt>
      <trkpt lat="43.56332" lon="6.82347">
        <ele>238.4</ele>
        <time>2025-01-10T08:25:52.000Z</time>
      </trkpt>
      <trkpt lat="43.56326" lon="6.82349">
        <ele>238.7</ele>
        <time>2025-01-10T08:25:51.000Z</time>
      </trkpt>
      <trkpt lat="43.56321" lon="6.8235">
        <ele>238.9</ele>
        <time>2025-01-10T08:25:50.000Z</time>
      </trkpt>
      <trkpt lat="43.56317" lon="6.82351">
        <ele>239</ele>
        <time>2025-01-10T08:25:49.000Z</time>
      </trkpt>
      <trkpt lat="43.56312" lon="6.82353">
        <ele>239.2</ele>
        <time>2025-01-10T08:25:48.000Z</time>
      </trkpt>
      <trkpt lat="43.56307" lon="6.82355">
        <ele>239.4</ele>
        <time>2025-01-10T08:25:47.000Z</time>
      </trkpt>
      <trkpt lat="43.56302" lon="6.82357">
        <ele>239.6</ele>
        <time>2025-01-10T08:25:46.000Z</time>
      </trkpt>
      <trkpt lat="43.56298" lon="6.82358">
        <ele>239.7</ele>
        <time>2025-01-10T08:25:45.000Z</time>
      </trkpt>
      <trkpt lat="43.56293" lon="6.82359">
        <ele>239.9</ele>
        <time>2025-01-10T08:25:44.000Z</time>
      </trkpt>
      <trkpt lat="43.56288" lon="6.82361">
        <ele>240</ele>
        <time>2025-01-10T08:25:43.000Z</time>
      </trkpt>
      <trkpt lat="43.56282" lon="6.82362">
        <ele>240.2</ele>
        <time>2025-01-10T08:25:42.000Z</time>
      </trkpt>
      <trkpt lat="43.56278" lon="6.82363">
        <ele>240.3</ele>
        <time>2025-01-10T08:25:41.000Z</time>
      </trkpt>
      <trkpt lat="43.56275" lon="6.82364">
        <ele>240.3</ele>
        <time>2025-01-10T08:25:40.000Z</time>
      </trkpt>
      <trkpt lat="43.56271" lon="6.82365">
        <ele>240.4</ele>
        <time>2025-01-10T08:25:39.000Z</time>
      </trkpt>
      <trkpt lat="43.56267" lon="6.82365">
        <ele>240.5</ele>
        <time>2025-01-10T08:25:38.000Z</time>
      </trkpt>
      <trkpt lat="43.56263" lon="6.82366">
        <ele>240.5</ele>
        <time>2025-01-10T08:25:37.000Z</time>
      </trkpt>
      <trkpt lat="43.56259" lon="6.82366">
        <ele>240.5</ele>
        <time>2025-01-10T08:25:36.000Z</time>
      </trkpt>
      <trkpt lat="43.56255" lon="6.82366">
        <ele>240.5</ele>
        <time>2025-01-10T08:25:35.000Z</time>
      </trkpt>
      <trkpt lat="43.5625" lon="6.82366">
        <ele>240.5</ele>
        <time>2025-01-10T08:25:34.000Z</time>
      </trkpt>
      <trkpt lat="43.56245" lon="6.82367">
        <ele>240.5</ele>
        <time>2025-01-10T08:25:33.000Z</time>
      </trkpt>
      <trkpt lat="43.56242" lon="6.82367">
        <ele>240.5</ele>
        <time>2025-01-10T08:25:32.000Z</time>
      </trkpt>
      <trkpt lat="43.56238" lon="6.82367">
        <ele>240.5</ele>
        <time>2025-01-10T08:25:31.000Z</time>
      </trkpt>
      <trkpt lat="43.56234" lon="6.82367">
        <ele>240.5</ele>
        <time>2025-01-10T08:25:30.000Z</time>
      </trkpt>
      <trkpt lat="43.56229" lon="6.82368">
        <ele>240.5</ele>
        <time>2025-01-10T08:25:29.000Z</time>
      </trkpt>
      <trkpt lat="43.56225" lon="6.8237">
        <ele>240.4</ele>
        <time>2025-01-10T08:25:28.000Z</time>
      </trkpt>
      <trkpt lat="43.56222" lon="6.82372">
        <ele>240.4</ele>
        <time>2025-01-10T08:25:27.000Z</time>
      </trkpt>
      <trkpt lat="43.56218" lon="6.82374">
        <ele>240.5</ele>
        <time>2025-01-10T08:25:26.000Z</time>
      </trkpt>
      <trkpt lat="43.56215" lon="6.82377">
        <ele>240.5</ele>
        <time>2025-01-10T08:25:25.000Z</time>
      </trkpt>
      <trkpt lat="43.56211" lon="6.82381">
        <ele>240.4</ele>
        <time>2025-01-10T08:25:24.000Z</time>
      </trkpt>
      <trkpt lat="43.56207" lon="6.82385">
        <ele>240.4</ele>
        <time>2025-01-10T08:25:23.000Z</time>
      </trkpt>
      <trkpt lat="43.56205" lon="6.82388">
        <ele>240.4</ele>
        <time>2025-01-10T08:25:22.000Z</time>
      </trkpt>
      <trkpt lat="43.56202" lon="6.82392">
        <ele>240.4</ele>
        <time>2025-01-10T08:25:21.000Z</time>
      </trkpt>
      <trkpt lat="43.56199" lon="6.82395">
        <ele>240.4</ele>
        <time>2025-01-10T08:25:20.000Z</time>
      </trkpt>
      <trkpt lat="43.56195" lon="6.824">
        <ele>240.3</ele>
        <time>2025-01-10T08:25:19.000Z</time>
      </trkpt>
      <trkpt lat="43.56193" lon="6.82403">
        <ele>240.3</ele>
        <time>2025-01-10T08:25:18.000Z</time>
      </trkpt>
      <trkpt lat="43.5619" lon="6.82407">
        <ele>240.2</ele>
        <time>2025-01-10T08:25:17.000Z</time>
      </trkpt>
      <trkpt lat="43.56187" lon="6.8241">
        <ele>240.2</ele>
        <time>2025-01-10T08:25:16.000Z</time>
      </trkpt>
      <trkpt lat="43.56184" lon="6.82415">
        <ele>240.1</ele>
        <time>2025-01-10T08:25:15.000Z</time>
      </trkpt>
      <trkpt lat="43.56181" lon="6.82417">
        <ele>240.1</ele>
        <time>2025-01-10T08:25:14.000Z</time>
      </trkpt>
      <trkpt lat="43.56177" lon="6.8242">
        <ele>240</ele>
        <time>2025-01-10T08:25:13.000Z</time>
      </trkpt>
      <trkpt lat="43.56174" lon="6.82423">
        <ele>239.9</ele>
        <time>2025-01-10T08:25:12.000Z</time>
      </trkpt>
      <trkpt lat="43.5617" lon="6.82425">
        <ele>239.8</ele>
        <time>2025-01-10T08:25:11.000Z</time>
      </trkpt>
      <trkpt lat="43.56166" lon="6.82428">
        <ele>239.7</ele>
        <time>2025-01-10T08:25:10.000Z</time>
      </trkpt>
      <trkpt lat="43.56163" lon="6.8243">
        <ele>239.6</ele>
        <time>2025-01-10T08:25:09.000Z</time>
      </trkpt>
      <trkpt lat="43.56159" lon="6.82432">
        <ele>239.4</ele>
        <time>2025-01-10T08:25:08.000Z</time>
      </trkpt>
      <trkpt lat="43.56155" lon="6.82434">
        <ele>239.3</ele>
        <time>2025-01-10T08:25:07.000Z</time>
      </trkpt>
      <trkpt lat="43.56151" lon="6.82435">
        <ele>239.2</ele>
        <time>2025-01-10T08:25:06.000Z</time>
      </trkpt>
      <trkpt lat="43.56147" lon="6.82436">
        <ele>239.1</ele>
        <time>2025-01-10T08:25:05.000Z</time>
      </trkpt>
      <trkpt lat="43.56143" lon="6.82437">
        <ele>239</ele>
        <time>2025-01-10T08:25:04.000Z</time>
      </trkpt>
      <trkpt lat="43.56138" lon="6.82437">
        <ele>238.8</ele>
        <time>2025-01-10T08:25:03.000Z</time>
      </trkpt>
      <trkpt lat="43.56135" lon="6.82438">
        <ele>238.7</ele>
        <time>2025-01-10T08:25:02.000Z</time>
      </trkpt>
      <trkpt lat="43.56131" lon="6.82438">
        <ele>238.6</ele>
        <time>2025-01-10T08:25:01.000Z</time>
      </trkpt>
      <trkpt lat="43.56127" lon="6.8244">
        <ele>238.5</ele>
        <time>2025-01-10T08:25:00.000Z</time>
      </trkpt>
      <trkpt lat="43.56123" lon="6.82442">
        <ele>238.4</ele>
        <time>2025-01-10T08:24:59.000Z</time>
      </trkpt>
      <trkpt lat="43.5612" lon="6.82444">
        <ele>238.3</ele>
        <time>2025-01-10T08:24:58.000Z</time>
      </trkpt>
      <trkpt lat="43.56117" lon="6.82447">
        <ele>238.1</ele>
        <time>2025-01-10T08:24:57.000Z</time>
      </trkpt>
      <trkpt lat="43.56113" lon="6.8245">
        <ele>238</ele>
        <time>2025-01-10T08:24:56.000Z</time>
      </trkpt>
      <trkpt lat="43.5611" lon="6.82453">
        <ele>237.9</ele>
        <time>2025-01-10T08:24:55.000Z</time>
      </trkpt>
      <trkpt lat="43.56107" lon="6.82457">
        <ele>237.8</ele>
        <time>2025-01-10T08:24:54.000Z</time>
      </trkpt>
      <trkpt lat="43.56103" lon="6.82461">
        <ele>237.7</ele>
        <time>2025-01-10T08:24:53.000Z</time>
      </trkpt>
      <trkpt lat="43.561" lon="6.82464">
        <ele>237.6</ele>
        <time>2025-01-10T08:24:52.000Z</time>
      </trkpt>
      <trkpt lat="43.56097" lon="6.82468">
        <ele>237.5</ele>
        <time>2025-01-10T08:24:51.000Z</time>
      </trkpt>
      <trkpt lat="43.56094" lon="6.82471">
        <ele>237.3</ele>
        <time>2025-01-10T08:24:50.000Z</time>
      </trkpt>
      <trkpt lat="43.56091" lon="6.82475">
        <ele>237.2</ele>
        <time>2025-01-10T08:24:49.000Z</time>
      </trkpt>
      <trkpt lat="43.56088" lon="6.82479">
        <ele>237.1</ele>
        <time>2025-01-10T08:24:48.000Z</time>
      </trkpt>
      <trkpt lat="43.56085" lon="6.82483">
        <ele>237</ele>
        <time>2025-01-10T08:24:47.000Z</time>
      </trkpt>
      <trkpt lat="43.56083" lon="6.82487">
        <ele>236.9</ele>
        <time>2025-01-10T08:24:46.000Z</time>
      </trkpt>
      <trkpt lat="43.56081" lon="6.82491">
        <ele>236.8</ele>
        <time>2025-01-10T08:24:45.000Z</time>
      </trkpt>
      <trkpt lat="43.56078" lon="6.82495">
        <ele>236.7</ele>
        <time>2025-01-10T08:24:44.000Z</time>
      </trkpt>
      <trkpt lat="43.56075" lon="6.82498">
        <ele>236.6</ele>
        <time>2025-01-10T08:24:43.000Z</time>
      </trkpt>
      <trkpt lat="43.56071" lon="6.82501">
        <ele>236.6</ele>
        <time>2025-01-10T08:24:42.000Z</time>
      </trkpt>
      <trkpt lat="43.56067" lon="6.82502">
        <ele>236.5</ele>
        <time>2025-01-10T08:24:41.000Z</time>
      </trkpt>
      <trkpt lat="43.56063" lon="6.82503">
        <ele>236.4</ele>
        <time>2025-01-10T08:24:40.000Z</time>
      </trkpt>
      <trkpt lat="43.56059" lon="6.82503">
        <ele>236.4</ele>
        <time>2025-01-10T08:24:39.000Z</time>
      </trkpt>
      <trkpt lat="43.56056" lon="6.82504">
        <ele>236.3</ele>
        <time>2025-01-10T08:24:38.000Z</time>
      </trkpt>
      <trkpt lat="43.56053" lon="6.82505">
        <ele>236.3</ele>
        <time>2025-01-10T08:24:37.000Z</time>
      </trkpt>
      <trkpt lat="43.56048" lon="6.82507">
        <ele>236.2</ele>
        <time>2025-01-10T08:24:36.000Z</time>
      </trkpt>
      <trkpt lat="43.56044" lon="6.82508">
        <ele>236.2</ele>
        <time>2025-01-10T08:24:35.000Z</time>
      </trkpt>
      <trkpt lat="43.56041" lon="6.8251">
        <ele>236.1</ele>
        <time>2025-01-10T08:24:34.000Z</time>
      </trkpt>
      <trkpt lat="43.56038" lon="6.82513">
        <ele>236.1</ele>
        <time>2025-01-10T08:24:33.000Z</time>
      </trkpt>
      <trkpt lat="43.56034" lon="6.82515">
        <ele>236</ele>
        <time>2025-01-10T08:24:32.000Z</time>
      </trkpt>
      <trkpt lat="43.56031" lon="6.82517">
        <ele>236</ele>
        <time>2025-01-10T08:24:31.000Z</time>
      </trkpt>
      <trkpt lat="43.56028" lon="6.82519">
        <ele>235.9</ele>
        <time>2025-01-10T08:24:30.000Z</time>
      </trkpt>
      <trkpt lat="43.56025" lon="6.8252">
        <ele>235.9</ele>
        <time>2025-01-10T08:24:29.000Z</time>
      </trkpt>
      <trkpt lat="43.56022" lon="6.82522">
        <ele>235.8</ele>
        <time>2025-01-10T08:24:28.000Z</time>
      </trkpt>
      <trkpt lat="43.56019" lon="6.82523">
        <ele>235.7</ele>
        <time>2025-01-10T08:24:27.000Z</time>
      </trkpt>
      <trkpt lat="43.56016" lon="6.82524">
        <ele>235.7</ele>
        <time>2025-01-10T08:24:26.000Z</time>
      </trkpt>
      <trkpt lat="43.56014" lon="6.82526">
        <ele>235.6</ele>
        <time>2025-01-10T08:24:25.000Z</time>
      </trkpt>
      <trkpt lat="43.56013" lon="6.82527">
        <ele>235.6</ele>
        <time>2025-01-10T08:24:24.000Z</time>
      </trkpt>
      <trkpt lat="43.56012" lon="6.82527">
        <ele>235.6</ele>
        <time>2025-01-10T08:24:23.000Z</time>
      </trkpt>
      <trkpt lat="43.56011" lon="6.82527">
        <ele>235.6</ele>
        <time>2025-01-10T08:24:22.000Z</time>
      </trkpt>
      <trkpt lat="43.56011" lon="6.82527">
        <ele>235.6</ele>
        <time>2025-01-10T08:24:21.000Z</time>
      </trkpt>
      <trkpt lat="43.56012" lon="6.82527">
        <ele>235.5</ele>
        <time>2025-01-10T08:24:20.000Z</time>
      </trkpt>
      <trkpt lat="43.56012" lon="6.82527">
        <ele>235.5</ele>
        <time>2025-01-10T08:24:19.000Z</time>
      </trkpt>
      <trkpt lat="43.56013" lon="6.82527">
        <ele>235.5</ele>
        <time>2025-01-10T08:24:18.000Z</time>
      </trkpt>
      <trkpt lat="43.56013" lon="6.82527">
        <ele>235.5</ele>
        <time>2025-01-10T08:24:17.000Z</time>
      </trkpt>
      <trkpt lat="43.56013" lon="6.82527">
        <ele>235.5</ele>
        <time>2025-01-10T08:24:16.000Z</time>
      </trkpt>
      <trkpt lat="43.56012" lon="6.82527">
        <ele>235.5</ele>
        <time>2025-01-10T08:24:15.000Z</time>
      </trkpt>
      <trkpt lat="43.56012" lon="6.82527">
        <ele>235.5</ele>
        <time>2025-01-10T08:24:14.000Z</time>
      </trkpt>
      <trkpt lat="43.56011" lon="6.82527">
        <ele>235.5</ele>
        <time>2025-01-10T08:24:13.000Z</time>
      </trkpt>
      <trkpt lat="43.56009" lon="6.82526">
        <ele>235.4</ele>
        <time>2025-01-10T08:24:12.000Z</time>
      </trkpt>
      <trkpt lat="43.56007" lon="6.82525">
        <ele>235.4</ele>
        <time>2025-01-10T08:24:11.000Z</time>
      </trkpt>
      <trkpt lat="43.56004" lon="6.82523">
        <ele>235.3</ele>
        <time>2025-01-10T08:24:10.000Z</time>
      </trkpt>
      <trkpt lat="43.56001" lon="6.82521">
        <ele>235.2</ele>
        <time>2025-01-10T08:24:09.000Z</time>
      </trkpt>
      <trkpt lat="43.55999" lon="6.82518">
        <ele>235.1</ele>
        <time>2025-01-10T08:24:08.000Z</time>
      </trkpt>
      <trkpt lat="43.55996" lon="6.82516">
        <ele>235</ele>
        <time>2025-01-10T08:24:07.000Z</time>
      </trkpt>
      <trkpt lat="43.55994" lon="6.82513">
        <ele>234.9</ele>
        <time>2025-01-10T08:24:06.000Z</time>
      </trkpt>
      <trkpt lat="43.55991" lon="6.8251">
        <ele>234.8</ele>
        <time>2025-01-10T08:24:05.000Z</time>
      </trkpt>
      <trkpt lat="43.55988" lon="6.82507">
        <ele>234.6</ele>
        <time>2025-01-10T08:24:04.000Z</time>
      </trkpt>
      <trkpt lat="43.55986" lon="6.82504">
        <ele>234.5</ele>
        <time>2025-01-10T08:24:03.000Z</time>
      </trkpt>
      <trkpt lat="43.55983" lon="6.82502">
        <ele>234.4</ele>
        <time>2025-01-10T08:24:02.000Z</time>
      </trkpt>
      <trkpt lat="43.55981" lon="6.82499">
        <ele>234.2</ele>
        <time>2025-01-10T08:24:01.000Z</time>
      </trkpt>
      <trkpt lat="43.55978" lon="6.82497">
        <ele>234.1</ele>
        <time>2025-01-10T08:24:00.000Z</time>
      </trkpt>
      <trkpt lat="43.55975" lon="6.82495">
        <ele>233.9</ele>
        <time>2025-01-10T08:23:59.000Z</time>
      </trkpt>
      <trkpt lat="43.55972" lon="6.82494">
        <ele>233.7</ele>
        <time>2025-01-10T08:23:58.000Z</time>
      </trkpt>
      <trkpt lat="43.55969" lon="6.82493">
        <ele>233.5</ele>
        <time>2025-01-10T08:23:57.000Z</time>
      </trkpt>
      <trkpt lat="43.55966" lon="6.82492">
        <ele>233.3</ele>
        <time>2025-01-10T08:23:56.000Z</time>
      </trkpt>
      <trkpt lat="43.55963" lon="6.82492">
        <ele>233.1</ele>
        <time>2025-01-10T08:23:55.000Z</time>
      </trkpt>
      <trkpt lat="43.5596" lon="6.82491">
        <ele>232.9</ele>
        <time>2025-01-10T08:23:54.000Z</time>
      </trkpt>
      <trkpt lat="43.55956" lon="6.82491">
        <ele>232.6</ele>
        <time>2025-01-10T08:23:53.000Z</time>
      </trkpt>
      <trkpt lat="43.55953" lon="6.82491">
        <ele>232.4</ele>
        <time>2025-01-10T08:23:52.000Z</time>
      </trkpt>
      <trkpt lat="43.5595" lon="6.82491">
        <ele>232.1</ele>
        <time>2025-01-10T08:23:51.000Z</time>
      </trkpt>
      <trkpt lat="43.55947" lon="6.82491">
        <ele>231.9</ele>
        <time>2025-01-10T08:23:50.000Z</time>
      </trkpt>
      <trkpt lat="43.55944" lon="6.82491">
        <ele>231.7</ele>
        <time>2025-01-10T08:23:49.000Z</time>
      </trkpt>
      <trkpt lat="43.55941" lon="6.8249">
        <ele>231.4</ele>
        <time>2025-01-10T08:23:48.000Z</time>
      </trkpt>
      <trkpt lat="43.55938" lon="6.82491">
        <ele>231.1</ele>
        <time>2025-01-10T08:23:47.000Z</time>
      </trkpt>
      <trkpt lat="43.55935" lon="6.82491">
        <ele>230.9</ele>
        <time>2025-01-10T08:23:46.000Z</time>
      </trkpt>
      <trkpt lat="43.55931" lon="6.82491">
        <ele>230.7</ele>
        <time>2025-01-10T08:23:45.000Z</time>
      </trkpt>
      <trkpt lat="43.55928" lon="6.82492">
        <ele>230.4</ele>
        <time>2025-01-10T08:23:44.000Z</time>
      </trkpt>
      <trkpt lat="43.55925" lon="6.82493">
        <ele>230.2</ele>
        <time>2025-01-10T08:23:43.000Z</time>
      </trkpt>
      <trkpt lat="43.55922" lon="6.82494">
        <ele>229.9</ele>
        <time>2025-01-10T08:23:42.000Z</time>
      </trkpt>
      <trkpt lat="43.55918" lon="6.82495">
        <ele>229.6</ele>
        <time>2025-01-10T08:23:41.000Z</time>
      </trkpt>
      <trkpt lat="43.55915" lon="6.82496">
        <ele>229.4</ele>
        <time>2025-01-10T08:23:40.000Z</time>
      </trkpt>
      <trkpt lat="43.55911" lon="6.82497">
        <ele>229.1</ele>
        <time>2025-01-10T08:23:39.000Z</time>
      </trkpt>
      <trkpt lat="43.55908" lon="6.82498">
        <ele>228.8</ele>
        <time>2025-01-10T08:23:38.000Z</time>
      </trkpt>
      <trkpt lat="43.55905" lon="6.82499">
        <ele>228.6</ele>
        <time>2025-01-10T08:23:37.000Z</time>
      </trkpt>
      <trkpt lat="43.55901" lon="6.825">
        <ele>228.2</ele>
        <time>2025-01-10T08:23:36.000Z</time>
      </trkpt>
      <trkpt lat="43.55898" lon="6.82501">
        <ele>228</ele>
        <time>2025-01-10T08:23:35.000Z</time>
      </trkpt>
      <trkpt lat="43.55894" lon="6.82502">
        <ele>227.8</ele>
        <time>2025-01-10T08:23:34.000Z</time>
      </trkpt>
      <trkpt lat="43.5589" lon="6.82503">
        <ele>227.5</ele>
        <time>2025-01-10T08:23:33.000Z</time>
      </trkpt>
      <trkpt lat="43.55887" lon="6.82504">
        <ele>227.3</ele>
        <time>2025-01-10T08:23:32.000Z</time>
      </trkpt>
      <trkpt lat="43.55883" lon="6.82504">
        <ele>227.1</ele>
        <time>2025-01-10T08:23:31.000Z</time>
      </trkpt>
      <trkpt lat="43.55879" lon="6.82505">
        <ele>226.9</ele>
        <time>2025-01-10T08:23:30.000Z</time>
      </trkpt>
      <trkpt lat="43.55876" lon="6.82506">
        <ele>226.7</ele>
        <time>2025-01-10T08:23:29.000Z</time>
      </trkpt>
      <trkpt lat="43.55872" lon="6.82507">
        <ele>226.4</ele>
        <time>2025-01-10T08:23:28.000Z</time>
      </trkpt>
      <trkpt lat="43.55869" lon="6.82508">
        <ele>226.2</ele>
        <time>2025-01-10T08:23:27.000Z</time>
      </trkpt>
      <trkpt lat="43.55865" lon="6.82508">
        <ele>225.9</ele>
        <time>2025-01-10T08:23:26.000Z</time>
      </trkpt>
      <trkpt lat="43.55861" lon="6.82509">
        <ele>225.7</ele>
        <time>2025-01-10T08:23:25.000Z</time>
      </trkpt>
      <trkpt lat="43.55858" lon="6.82511">
        <ele>225.5</ele>
        <time>2025-01-10T08:23:24.000Z</time>
      </trkpt>
      <trkpt lat="43.55855" lon="6.82513">
        <ele>225.2</ele>
        <time>2025-01-10T08:23:23.000Z</time>
      </trkpt>
      <trkpt lat="43.55852" lon="6.82516">
        <ele>225</ele>
        <time>2025-01-10T08:23:22.000Z</time>
      </trkpt>
      <trkpt lat="43.5585" lon="6.8252">
        <ele>224.8</ele>
        <time>2025-01-10T08:23:21.000Z</time>
      </trkpt>
      <trkpt lat="43.55847" lon="6.82523">
        <ele>224.5</ele>
        <time>2025-01-10T08:23:20.000Z</time>
      </trkpt>
      <trkpt lat="43.55844" lon="6.82526">
        <ele>224.3</ele>
        <time>2025-01-10T08:23:19.000Z</time>
      </trkpt>
      <trkpt lat="43.55841" lon="6.82529">
        <ele>224.1</ele>
        <time>2025-01-10T08:23:18.000Z</time>
      </trkpt>
      <trkpt lat="43.55838" lon="6.82532">
        <ele>223.8</ele>
        <time>2025-01-10T08:23:17.000Z</time>
      </trkpt>
      <trkpt lat="43.55835" lon="6.82534">
        <ele>223.6</ele>
        <time>2025-01-10T08:23:16.000Z</time>
      </trkpt>
      <trkpt lat="43.55831" lon="6.82537">
        <ele>223.3</ele>
        <time>2025-01-10T08:23:15.000Z</time>
      </trkpt>
      <trkpt lat="43.55829" lon="6.8254">
        <ele>223.1</ele>
        <time>2025-01-10T08:23:14.000Z</time>
      </trkpt>
      <trkpt lat="43.55826" lon="6.82544">
        <ele>222.8</ele>
        <time>2025-01-10T08:23:13.000Z</time>
      </trkpt>
      <trkpt lat="43.55823" lon="6.82548">
        <ele>222.5</ele>
        <time>2025-01-10T08:23:12.000Z</time>
      </trkpt>
      <trkpt lat="43.55821" lon="6.82553">
        <ele>222.3</ele>
        <time>2025-01-10T08:23:11.000Z</time>
      </trkpt>
      <trkpt lat="43.55818" lon="6.82558">
        <ele>221.9</ele>
        <time>2025-01-10T08:23:10.000Z</time>
      </trkpt>
      <trkpt lat="43.55816" lon="6.82561">
        <ele>221.7</ele>
        <time>2025-01-10T08:23:09.000Z</time>
      </trkpt>
      <trkpt lat="43.55814" lon="6.82564">
        <ele>221.5</ele>
        <time>2025-01-10T08:23:08.000Z</time>
      </trkpt>
      <trkpt lat="43.55811" lon="6.82568">
        <ele>221.2</ele>
        <time>2025-01-10T08:23:07.000Z</time>
      </trkpt>
      <trkpt lat="43.55807" lon="6.82571">
        <ele>220.9</ele>
        <time>2025-01-10T08:23:06.000Z</time>
      </trkpt>
      <trkpt lat="43.55804" lon="6.82573">
        <ele>220.6</ele>
        <time>2025-01-10T08:23:05.000Z</time>
      </trkpt>
      <trkpt lat="43.55801" lon="6.82575">
        <ele>220.3</ele>
        <time>2025-01-10T08:23:04.000Z</time>
      </trkpt>
      <trkpt lat="43.55797" lon="6.82576">
        <ele>220</ele>
        <time>2025-01-10T08:23:03.000Z</time>
      </trkpt>
      <trkpt lat="43.55793" lon="6.82577">
        <ele>219.7</ele>
        <time>2025-01-10T08:23:02.000Z</time>
      </trkpt>
      <trkpt lat="43.55789" lon="6.82578">
        <ele>219.5</ele>
        <time>2025-01-10T08:23:01.000Z</time>
      </trkpt>
      <trkpt lat="43.55786" lon="6.82578">
        <ele>219.3</ele>
        <time>2025-01-10T08:23:00.000Z</time>
      </trkpt>
      <trkpt lat="43.55782" lon="6.82578">
        <ele>219.1</ele>
        <time>2025-01-10T08:22:59.000Z</time>
      </trkpt>
      <trkpt lat="43.55778" lon="6.82577">
        <ele>218.9</ele>
        <time>2025-01-10T08:22:58.000Z</time>
      </trkpt>
      <trkpt lat="43.55774" lon="6.82576">
        <ele>218.7</ele>
        <time>2025-01-10T08:22:57.000Z</time>
      </trkpt>
      <trkpt lat="43.55771" lon="6.82575">
        <ele>218.5</ele>
        <time>2025-01-10T08:22:56.000Z</time>
      </trkpt>
      <trkpt lat="43.55767" lon="6.82574">
        <ele>218.3</ele>
        <time>2025-01-10T08:22:55.000Z</time>
      </trkpt>
      <trkpt lat="43.55764" lon="6.82572">
        <ele>218.1</ele>
        <time>2025-01-10T08:22:54.000Z</time>
      </trkpt>
      <trkpt lat="43.5576" lon="6.82572">
        <ele>217.9</ele>
        <time>2025-01-10T08:22:53.000Z</time>
      </trkpt>
      <trkpt lat="43.55756" lon="6.82574">
        <ele>217.7</ele>
        <time>2025-01-10T08:22:52.000Z</time>
      </trkpt>
      <trkpt lat="43.55753" lon="6.82575">
        <ele>217.5</ele>
        <time>2025-01-10T08:22:51.000Z</time>
      </trkpt>
      <trkpt lat="43.5575" lon="6.82579">
        <ele>217.2</ele>
        <time>2025-01-10T08:22:50.000Z</time>
      </trkpt>
      <trkpt lat="43.55748" lon="6.82583">
        <ele>216.9</ele>
        <time>2025-01-10T08:22:49.000Z</time>
      </trkpt>
      <trkpt lat="43.55747" lon="6.82588">
        <ele>216.7</ele>
        <time>2025-01-10T08:22:48.000Z</time>
      </trkpt>
      <trkpt lat="43.55745" lon="6.82593">
        <ele>216.3</ele>
        <time>2025-01-10T08:22:47.000Z</time>
      </trkpt>
      <trkpt lat="43.55743" lon="6.82597">
        <ele>216</ele>
        <time>2025-01-10T08:22:46.000Z</time>
      </trkpt>
      <trkpt lat="43.55742" lon="6.82601">
        <ele>215.8</ele>
        <time>2025-01-10T08:22:45.000Z</time>
      </trkpt>
      <trkpt lat="43.55741" lon="6.82607">
        <ele>215.4</ele>
        <time>2025-01-10T08:22:44.000Z</time>
      </trkpt>
      <trkpt lat="43.5574" lon="6.82612">
        <ele>215.1</ele>
        <time>2025-01-10T08:22:43.000Z</time>
      </trkpt>
      <trkpt lat="43.55739" lon="6.82617">
        <ele>214.8</ele>
        <time>2025-01-10T08:22:42.000Z</time>
      </trkpt>
      <trkpt lat="43.55737" lon="6.82621">
        <ele>214.6</ele>
        <time>2025-01-10T08:22:41.000Z</time>
      </trkpt>
      <trkpt lat="43.55735" lon="6.82627">
        <ele>214.2</ele>
        <time>2025-01-10T08:22:40.000Z</time>
      </trkpt>
      <trkpt lat="43.55734" lon="6.82631">
        <ele>213.9</ele>
        <time>2025-01-10T08:22:39.000Z</time>
      </trkpt>
      <trkpt lat="43.55732" lon="6.82636">
        <ele>213.6</ele>
        <time>2025-01-10T08:22:38.000Z</time>
      </trkpt>
      <trkpt lat="43.5573" lon="6.8264">
        <ele>213.3</ele>
        <time>2025-01-10T08:22:37.000Z</time>
      </trkpt>
      <trkpt lat="43.55727" lon="6.82644">
        <ele>213.1</ele>
        <time>2025-01-10T08:22:36.000Z</time>
      </trkpt>
      <trkpt lat="43.55725" lon="6.82648">
        <ele>212.8</ele>
        <time>2025-01-10T08:22:35.000Z</time>
      </trkpt>
      <trkpt lat="43.55722" lon="6.82651">
        <ele>212.6</ele>
        <time>2025-01-10T08:22:34.000Z</time>
      </trkpt>
      <trkpt lat="43.55721" lon="6.82654">
        <ele>212.4</ele>
        <time>2025-01-10T08:22:33.000Z</time>
      </trkpt>
      <trkpt lat="43.55718" lon="6.82657">
        <ele>212.1</ele>
        <time>2025-01-10T08:22:32.000Z</time>
      </trkpt>
      <trkpt lat="43.55715" lon="6.82659">
        <ele>211.9</ele>
        <time>2025-01-10T08:22:31.000Z</time>
      </trkpt>
      <trkpt lat="43.55713" lon="6.8266">
        <ele>211.7</ele>
        <time>2025-01-10T08:22:30.000Z</time>
      </trkpt>
      <trkpt lat="43.5571" lon="6.82661">
        <ele>211.5</ele>
        <time>2025-01-10T08:22:29.000Z</time>
      </trkpt>
      <trkpt lat="43.55708" lon="6.82662">
        <ele>211.3</ele>
        <time>2025-01-10T08:22:28.000Z</time>
      </trkpt>
      <trkpt lat="43.55705" lon="6.82664">
        <ele>211.1</ele>
        <time>2025-01-10T08:22:27.000Z</time>
      </trkpt>
      <trkpt lat="43.55703" lon="6.82665">
        <ele>210.9</ele>
        <time>2025-01-10T08:22:26.000Z</time>
      </trkpt>
      <trkpt lat="43.557" lon="6.82667">
        <ele>210.6</ele>
        <time>2025-01-10T08:22:25.000Z</time>
      </trkpt>
      <trkpt lat="43.55697" lon="6.82668">
        <ele>210.4</ele>
        <time>2025-01-10T08:22:24.000Z</time>
      </trkpt>
      <trkpt lat="43.55693" lon="6.8267">
        <ele>210</ele>
        <time>2025-01-10T08:22:23.000Z</time>
      </trkpt>
      <trkpt lat="43.55689" lon="6.82671">
        <ele>209.7</ele>
        <time>2025-01-10T08:22:22.000Z</time>
      </trkpt>
      <trkpt lat="43.55685" lon="6.82671">
        <ele>209.4</ele>
        <time>2025-01-10T08:22:21.000Z</time>
      </trkpt>
      <trkpt lat="43.55682" lon="6.82672">
        <ele>209.1</ele>
        <time>2025-01-10T08:22:20.000Z</time>
      </trkpt>
      <trkpt lat="43.55678" lon="6.82671">
        <ele>208.8</ele>
        <time>2025-01-10T08:22:19.000Z</time>
      </trkpt>
      <trkpt lat="43.55675" lon="6.82671">
        <ele>208.6</ele>
        <time>2025-01-10T08:22:18.000Z</time>
      </trkpt>
      <trkpt lat="43.55672" lon="6.82671">
        <ele>208.4</ele>
        <time>2025-01-10T08:22:17.000Z</time>
      </trkpt>
      <trkpt lat="43.55669" lon="6.8267">
        <ele>208.1</ele>
        <time>2025-01-10T08:22:16.000Z</time>
      </trkpt>
      <trkpt lat="43.55665" lon="6.82668">
        <ele>207.8</ele>
        <time>2025-01-10T08:22:15.000Z</time>
      </trkpt>
      <trkpt lat="43.55661" lon="6.82665">
        <ele>207.4</ele>
        <time>2025-01-10T08:22:14.000Z</time>
      </trkpt>
      <trkpt lat="43.55658" lon="6.82662">
        <ele>207.1</ele>
        <time>2025-01-10T08:22:13.000Z</time>
      </trkpt>
      <trkpt lat="43.55656" lon="6.82658">
        <ele>206.8</ele>
        <time>2025-01-10T08:22:12.000Z</time>
      </trkpt>
      <trkpt lat="43.55654" lon="6.82653">
        <ele>206.5</ele>
        <time>2025-01-10T08:22:11.000Z</time>
      </trkpt>
      <trkpt lat="43.55653" lon="6.82648">
        <ele>206.3</ele>
        <time>2025-01-10T08:22:10.000Z</time>
      </trkpt>
      <trkpt lat="43.55653" lon="6.82644">
        <ele>206</ele>
        <time>2025-01-10T08:22:09.000Z</time>
      </trkpt>
      <trkpt lat="43.55654" lon="6.82638">
        <ele>205.7</ele>
        <time>2025-01-10T08:22:08.000Z</time>
      </trkpt>
      <trkpt lat="43.55655" lon="6.82633">
        <ele>205.5</ele>
        <time>2025-01-10T08:22:07.000Z</time>
      </trkpt>
      <trkpt lat="43.55657" lon="6.82628">
        <ele>205.2</ele>
        <time>2025-01-10T08:22:06.000Z</time>
      </trkpt>
      <trkpt lat="43.55657" lon="6.82623">
        <ele>205</ele>
        <time>2025-01-10T08:22:05.000Z</time>
      </trkpt>
      <trkpt lat="43.55657" lon="6.82617">
        <ele>204.8</ele>
        <time>2025-01-10T08:22:04.000Z</time>
      </trkpt>
      <trkpt lat="43.55655" lon="6.82613">
        <ele>204.6</ele>
        <time>2025-01-10T08:22:03.000Z</time>
      </trkpt>
      <trkpt lat="43.55653" lon="6.82608">
        <ele>204.3</ele>
        <time>2025-01-10T08:22:02.000Z</time>
      </trkpt>
      <trkpt lat="43.55651" lon="6.82605">
        <ele>204.1</ele>
        <time>2025-01-10T08:22:01.000Z</time>
      </trkpt>
      <trkpt lat="43.55649" lon="6.82602">
        <ele>204</ele>
        <time>2025-01-10T08:22:00.000Z</time>
      </trkpt>
      <trkpt lat="43.55647" lon="6.82598">
        <ele>203.7</ele>
        <time>2025-01-10T08:21:59.000Z</time>
      </trkpt>
      <trkpt lat="43.55643" lon="6.82594">
        <ele>203.5</ele>
        <time>2025-01-10T08:21:58.000Z</time>
      </trkpt>
      <trkpt lat="43.55641" lon="6.82592">
        <ele>203.3</ele>
        <time>2025-01-10T08:21:57.000Z</time>
      </trkpt>
      <trkpt lat="43.55639" lon="6.82589">
        <ele>203.1</ele>
        <time>2025-01-10T08:21:56.000Z</time>
      </trkpt>
      <trkpt lat="43.55635" lon="6.82587">
        <ele>202.8</ele>
        <time>2025-01-10T08:21:55.000Z</time>
      </trkpt>
      <trkpt lat="43.55631" lon="6.82587">
        <ele>202.6</ele>
        <time>2025-01-10T08:21:54.000Z</time>
      </trkpt>
      <trkpt lat="43.55628" lon="6.82588">
        <ele>202.4</ele>
        <time>2025-01-10T08:21:53.000Z</time>
      </trkpt>
      <trkpt lat="43.55624" lon="6.8259">
        <ele>202.2</ele>
        <time>2025-01-10T08:21:52.000Z</time>
      </trkpt>
      <trkpt lat="43.55621" lon="6.82592">
        <ele>202</ele>
        <time>2025-01-10T08:21:51.000Z</time>
      </trkpt>
      <trkpt lat="43.55617" lon="6.82594">
        <ele>201.8</ele>
        <time>2025-01-10T08:21:50.000Z</time>
      </trkpt>
      <trkpt lat="43.55613" lon="6.82598">
        <ele>201.5</ele>
        <time>2025-01-10T08:21:49.000Z</time>
      </trkpt>
      <trkpt lat="43.5561" lon="6.82601">
        <ele>201.3</ele>
        <time>2025-01-10T08:21:48.000Z</time>
      </trkpt>
      <trkpt lat="43.55607" lon="6.82603">
        <ele>201.2</ele>
        <time>2025-01-10T08:21:47.000Z</time>
      </trkpt>
      <trkpt lat="43.55603" lon="6.82607">
        <ele>201</ele>
        <time>2025-01-10T08:21:46.000Z</time>
      </trkpt>
      <trkpt lat="43.556" lon="6.82608">
        <ele>200.8</ele>
        <time>2025-01-10T08:21:45.000Z</time>
      </trkpt>
      <trkpt lat="43.55595" lon="6.82611">
        <ele>200.6</ele>
        <time>2025-01-10T08:21:44.000Z</time>
      </trkpt>
      <trkpt lat="43.55592" lon="6.82612">
        <ele>200.4</ele>
        <time>2025-01-10T08:21:43.000Z</time>
      </trkpt>
      <trkpt lat="43.55588" lon="6.82614">
        <ele>200.2</ele>
        <time>2025-01-10T08:21:42.000Z</time>
      </trkpt>
      <trkpt lat="43.55585" lon="6.82615">
        <ele>200.1</ele>
        <time>2025-01-10T08:21:41.000Z</time>
      </trkpt>
      <trkpt lat="43.5558" lon="6.82616">
        <ele>199.9</ele>
        <time>2025-01-10T08:21:40.000Z</time>
      </trkpt>
      <trkpt lat="43.55576" lon="6.82616">
        <ele>199.7</ele>
        <time>2025-01-10T08:21:39.000Z</time>
      </trkpt>
      <trkpt lat="43.55573" lon="6.82616">
        <ele>199.6</ele>
        <time>2025-01-10T08:21:38.000Z</time>
      </trkpt>
      <trkpt lat="43.55568" lon="6.82616">
        <ele>199.3</ele>
        <time>2025-01-10T08:21:37.000Z</time>
      </trkpt>
      <trkpt lat="43.55564" lon="6.82615">
        <ele>199.2</ele>
        <time>2025-01-10T08:21:36.000Z</time>
      </trkpt>
      <trkpt lat="43.5556" lon="6.82615">
        <ele>199</ele>
        <time>2025-01-10T08:21:35.000Z</time>
      </trkpt>
      <trkpt lat="43.55557" lon="6.82614">
        <ele>198.9</ele>
        <time>2025-01-10T08:21:34.000Z</time>
      </trkpt>
      <trkpt lat="43.55553" lon="6.82612">
        <ele>198.7</ele>
        <time>2025-01-10T08:21:33.000Z</time>
      </trkpt>
      <trkpt lat="43.55549" lon="6.8261">
        <ele>198.6</ele>
        <time>2025-01-10T08:21:32.000Z</time>
      </trkpt>
      <trkpt lat="43.55546" lon="6.82608">
        <ele>198.4</ele>
        <time>2025-01-10T08:21:31.000Z</time>
      </trkpt>
      <trkpt lat="43.55542" lon="6.82605">
        <ele>198.3</ele>
        <time>2025-01-10T08:21:30.000Z</time>
      </trkpt>
      <trkpt lat="43.55539" lon="6.82603">
        <ele>198.2</ele>
        <time>2025-01-10T08:21:29.000Z</time>
      </trkpt>
      <trkpt lat="43.55535" lon="6.82598">
        <ele>198.1</ele>
        <time>2025-01-10T08:21:28.000Z</time>
      </trkpt>
      <trkpt lat="43.55533" lon="6.82594">
        <ele>198</ele>
        <time>2025-01-10T08:21:27.000Z</time>
      </trkpt>
      <trkpt lat="43.5553" lon="6.8259">
        <ele>198</ele>
        <time>2025-01-10T08:21:26.000Z</time>
      </trkpt>
      <trkpt lat="43.55528" lon="6.82585">
        <ele>197.9</ele>
        <time>2025-01-10T08:21:25.000Z</time>
      </trkpt>
      <trkpt lat="43.55525" lon="6.82581">
        <ele>197.8</ele>
        <time>2025-01-10T08:21:24.000Z</time>
      </trkpt>
      <trkpt lat="43.55523" lon="6.82578">
        <ele>197.8</ele>
        <time>2025-01-10T08:21:23.000Z</time>
      </trkpt>
      <trkpt lat="43.5552" lon="6.82574">
        <ele>197.8</ele>
        <time>2025-01-10T08:21:22.000Z</time>
      </trkpt>
      <trkpt lat="43.55517" lon="6.82572">
        <ele>197.7</ele>
        <time>2025-01-10T08:21:21.000Z</time>
      </trkpt>
      <trkpt lat="43.55513" lon="6.82571">
        <ele>197.7</ele>
        <time>2025-01-10T08:21:20.000Z</time>
      </trkpt>
      <trkpt lat="43.55508" lon="6.82572">
        <ele>197.7</ele>
        <time>2025-01-10T08:21:19.000Z</time>
      </trkpt>
      <trkpt lat="43.55505" lon="6.82573">
        <ele>197.7</ele>
        <time>2025-01-10T08:21:18.000Z</time>
      </trkpt>
      <trkpt lat="43.55501" lon="6.82574">
        <ele>197.7</ele>
        <time>2025-01-10T08:21:17.000Z</time>
      </trkpt>
      <trkpt lat="43.55497" lon="6.82576">
        <ele>197.7</ele>
        <time>2025-01-10T08:21:16.000Z</time>
      </trkpt>
      <trkpt lat="43.55494" lon="6.82577">
        <ele>197.7</ele>
        <time>2025-01-10T08:21:15.000Z</time>
      </trkpt>
      <trkpt lat="43.5549" lon="6.82578">
        <ele>197.7</ele>
        <time>2025-01-10T08:21:14.000Z</time>
      </trkpt>
      <trkpt lat="43.55485" lon="6.82578">
        <ele>197.7</ele>
        <time>2025-01-10T08:21:13.000Z</time>
      </trkpt>
      <trkpt lat="43.55481" lon="6.82578">
        <ele>197.8</ele>
        <time>2025-01-10T08:21:12.000Z</time>
      </trkpt>
      <trkpt lat="43.55478" lon="6.82576">
        <ele>197.8</ele>
        <time>2025-01-10T08:21:11.000Z</time>
      </trkpt>
      <trkpt lat="43.55475" lon="6.82575">
        <ele>197.8</ele>
        <time>2025-01-10T08:21:10.000Z</time>
      </trkpt>
      <trkpt lat="43.55471" lon="6.82574">
        <ele>197.8</ele>
        <time>2025-01-10T08:21:09.000Z</time>
      </trkpt>
      <trkpt lat="43.55468" lon="6.82572">
        <ele>197.9</ele>
        <time>2025-01-10T08:21:08.000Z</time>
      </trkpt>
      <trkpt lat="43.55465" lon="6.82572">
        <ele>197.9</ele>
        <time>2025-01-10T08:21:07.000Z</time>
      </trkpt>
      <trkpt lat="43.55462" lon="6.82571">
        <ele>197.9</ele>
        <time>2025-01-10T08:21:06.000Z</time>
      </trkpt>
      <trkpt lat="43.55459" lon="6.82571">
        <ele>197.9</ele>
        <time>2025-01-10T08:21:05.000Z</time>
      </trkpt>
      <trkpt lat="43.55455" lon="6.82571">
        <ele>197.9</ele>
        <time>2025-01-10T08:21:04.000Z</time>
      </trkpt>
      <trkpt lat="43.55453" lon="6.82572">
        <ele>197.9</ele>
        <time>2025-01-10T08:21:03.000Z</time>
      </trkpt>
      <trkpt lat="43.55449" lon="6.82572">
        <ele>197.9</ele>
        <time>2025-01-10T08:21:02.000Z</time>
      </trkpt>
      <trkpt lat="43.55445" lon="6.82573">
        <ele>197.8</ele>
        <time>2025-01-10T08:21:01.000Z</time>
      </trkpt>
      <trkpt lat="43.55442" lon="6.82573">
        <ele>197.7</ele>
        <time>2025-01-10T08:21:00.000Z</time>
      </trkpt>
      <trkpt lat="43.55439" lon="6.82574">
        <ele>197.6</ele>
        <time>2025-01-10T08:20:59.000Z</time>
      </trkpt>
      <trkpt lat="43.55436" lon="6.82574">
        <ele>197.5</ele>
        <time>2025-01-10T08:20:58.000Z</time>
      </trkpt>
      <trkpt lat="43.55434" lon="6.82574">
        <ele>197.4</ele>
        <time>2025-01-10T08:20:57.000Z</time>
      </trkpt>
      <trkpt lat="43.55431" lon="6.82575">
        <ele>197.2</ele>
        <time>2025-01-10T08:20:56.000Z</time>
      </trkpt>
      <trkpt lat="43.55427" lon="6.82576">
        <ele>197</ele>
        <time>2025-01-10T08:20:55.000Z</time>
      </trkpt>
      <trkpt lat="43.55423" lon="6.82576">
        <ele>196.8</ele>
        <time>2025-01-10T08:20:54.000Z</time>
      </trkpt>
      <trkpt lat="43.55421" lon="6.82577">
        <ele>196.6</ele>
        <time>2025-01-10T08:20:53.000Z</time>
      </trkpt>
      <trkpt lat="43.55417" lon="6.82577">
        <ele>196.3</ele>
        <time>2025-01-10T08:20:52.000Z</time>
      </trkpt>
      <trkpt lat="43.55414" lon="6.82576">
        <ele>196.1</ele>
        <time>2025-01-10T08:20:51.000Z</time>
      </trkpt>
      <trkpt lat="43.55411" lon="6.82576">
        <ele>195.9</ele>
        <time>2025-01-10T08:20:50.000Z</time>
      </trkpt>
      <trkpt lat="43.55408" lon="6.82576">
        <ele>195.6</ele>
        <time>2025-01-10T08:20:49.000Z</time>
      </trkpt>
      <trkpt lat="43.55404" lon="6.82577">
        <ele>195.3</ele>
        <time>2025-01-10T08:20:48.000Z</time>
      </trkpt>
      <trkpt lat="43.55401" lon="6.82577">
        <ele>195.1</ele>
        <time>2025-01-10T08:20:47.000Z</time>
      </trkpt>
      <trkpt lat="43.55397" lon="6.82577">
        <ele>194.8</ele>
        <time>2025-01-10T08:20:46.000Z</time>
      </trkpt>
      <trkpt lat="43.55394" lon="6.82577">
        <ele>194.5</ele>
        <time>2025-01-10T08:20:45.000Z</time>
      </trkpt>
      <trkpt lat="43.55392" lon="6.82577">
        <ele>194.3</ele>
        <time>2025-01-10T08:20:44.000Z</time>
      </trkpt>
      <trkpt lat="43.55389" lon="6.82577">
        <ele>194</ele>
        <time>2025-01-10T08:20:43.000Z</time>
      </trkpt>
      <trkpt lat="43.55386" lon="6.82576">
        <ele>193.8</ele>
        <time>2025-01-10T08:20:42.000Z</time>
      </trkpt>
      <trkpt lat="43.55383" lon="6.82576">
        <ele>193.5</ele>
        <time>2025-01-10T08:20:41.000Z</time>
      </trkpt>
      <trkpt lat="43.55381" lon="6.82575">
        <ele>193.3</ele>
        <time>2025-01-10T08:20:40.000Z</time>
      </trkpt>
      <trkpt lat="43.55378" lon="6.82574">
        <ele>193</ele>
        <time>2025-01-10T08:20:39.000Z</time>
      </trkpt>
      <trkpt lat="43.55375" lon="6.82573">
        <ele>192.7</ele>
        <time>2025-01-10T08:20:38.000Z</time>
      </trkpt>
      <trkpt lat="43.55372" lon="6.82572">
        <ele>192.4</ele>
        <time>2025-01-10T08:20:37.000Z</time>
      </trkpt>
      <trkpt lat="43.5537" lon="6.82571">
        <ele>192.2</ele>
        <time>2025-01-10T08:20:36.000Z</time>
      </trkpt>
      <trkpt lat="43.55366" lon="6.8257">
        <ele>191.8</ele>
        <time>2025-01-10T08:20:35.000Z</time>
      </trkpt>
      <trkpt lat="43.55364" lon="6.82569">
        <ele>191.6</ele>
        <time>2025-01-10T08:20:34.000Z</time>
      </trkpt>
      <trkpt lat="43.5536" lon="6.82568">
        <ele>191.2</ele>
        <time>2025-01-10T08:20:33.000Z</time>
      </trkpt>
      <trkpt lat="43.55358" lon="6.82568">
        <ele>191</ele>
        <time>2025-01-10T08:20:32.000Z</time>
      </trkpt>
      <trkpt lat="43.55355" lon="6.82567">
        <ele>190.7</ele>
        <time>2025-01-10T08:20:31.000Z</time>
      </trkpt>
      <trkpt lat="43.55351" lon="6.82566">
        <ele>190.3</ele>
        <time>2025-01-10T08:20:30.000Z</time>
      </trkpt>
      <trkpt lat="43.55347" lon="6.82564">
        <ele>189.9</ele>
        <time>2025-01-10T08:20:29.000Z</time>
      </trkpt>
      <trkpt lat="43.55344" lon="6.82562">
        <ele>189.6</ele>
        <time>2025-01-10T08:20:28.000Z</time>
      </trkpt>
      <trkpt lat="43.5534" lon="6.8256">
        <ele>189.3</ele>
        <time>2025-01-10T08:20:27.000Z</time>
      </trkpt>
      <trkpt lat="43.55338" lon="6.82558">
        <ele>189</ele>
        <time>2025-01-10T08:20:26.000Z</time>
      </trkpt>
      <trkpt lat="43.55334" lon="6.82556">
        <ele>188.6</ele>
        <time>2025-01-10T08:20:25.000Z</time>
      </trkpt>
      <trkpt lat="43.55331" lon="6.82553">
        <ele>188.2</ele>
        <time>2025-01-10T08:20:24.000Z</time>
      </trkpt>
      <trkpt lat="43.55328" lon="6.8255">
        <ele>187.9</ele>
        <time>2025-01-10T08:20:23.000Z</time>
      </trkpt>
      <trkpt lat="43.55325" lon="6.82548">
        <ele>187.6</ele>
        <time>2025-01-10T08:20:22.000Z</time>
      </trkpt>
      <trkpt lat="43.55323" lon="6.82545">
        <ele>187.3</ele>
        <time>2025-01-10T08:20:21.000Z</time>
      </trkpt>
      <trkpt lat="43.5532" lon="6.82541">
        <ele>187</ele>
        <time>2025-01-10T08:20:20.000Z</time>
      </trkpt>
      <trkpt lat="43.55318" lon="6.82538">
        <ele>186.7</ele>
        <time>2025-01-10T08:20:19.000Z</time>
      </trkpt>
      <trkpt lat="43.55316" lon="6.82535">
        <ele>186.5</ele>
        <time>2025-01-10T08:20:18.000Z</time>
      </trkpt>
      <trkpt lat="43.55313" lon="6.82532">
        <ele>186.2</ele>
        <time>2025-01-10T08:20:17.000Z</time>
      </trkpt>
      <trkpt lat="43.55311" lon="6.82529">
        <ele>186</ele>
        <time>2025-01-10T08:20:16.000Z</time>
      </trkpt>
      <trkpt lat="43.55308" lon="6.82524">
        <ele>185.7</ele>
        <time>2025-01-10T08:20:15.000Z</time>
      </trkpt>
      <trkpt lat="43.55306" lon="6.8252">
        <ele>185.4</ele>
        <time>2025-01-10T08:20:14.000Z</time>
      </trkpt>
      <trkpt lat="43.55304" lon="6.82517">
        <ele>185.1</ele>
        <time>2025-01-10T08:20:13.000Z</time>
      </trkpt>
      <trkpt lat="43.55302" lon="6.82514">
        <ele>184.8</ele>
        <time>2025-01-10T08:20:12.000Z</time>
      </trkpt>
      <trkpt lat="43.553" lon="6.82509">
        <ele>184.5</ele>
        <time>2025-01-10T08:20:11.000Z</time>
      </trkpt>
      <trkpt lat="43.55298" lon="6.82504">
        <ele>184.2</ele>
        <time>2025-01-10T08:20:10.000Z</time>
      </trkpt>
      <trkpt lat="43.55297" lon="6.82501">
        <ele>183.9</ele>
        <time>2025-01-10T08:20:09.000Z</time>
      </trkpt>
      <trkpt lat="43.55295" lon="6.82495">
        <ele>183.6</ele>
        <time>2025-01-10T08:20:08.000Z</time>
      </trkpt>
      <trkpt lat="43.55294" lon="6.82491">
        <ele>183.3</ele>
        <time>2025-01-10T08:20:07.000Z</time>
      </trkpt>
      <trkpt lat="43.55292" lon="6.82487">
        <ele>182.9</ele>
        <time>2025-01-10T08:20:06.000Z</time>
      </trkpt>
      <trkpt lat="43.55291" lon="6.82482">
        <ele>182.6</ele>
        <time>2025-01-10T08:20:05.000Z</time>
      </trkpt>
      <trkpt lat="43.5529" lon="6.82478">
        <ele>182.3</ele>
        <time>2025-01-10T08:20:04.000Z</time>
      </trkpt>
      <trkpt lat="43.55288" lon="6.82474">
        <ele>181.9</ele>
        <time>2025-01-10T08:20:03.000Z</time>
      </trkpt>
      <trkpt lat="43.55287" lon="6.82468">
        <ele>181.5</ele>
        <time>2025-01-10T08:20:02.000Z</time>
      </trkpt>
      <trkpt lat="43.55286" lon="6.82464">
        <ele>181.1</ele>
        <time>2025-01-10T08:20:01.000Z</time>
      </trkpt>
      <trkpt lat="43.55285" lon="6.8246">
        <ele>180.7</ele>
        <time>2025-01-10T08:20:00.000Z</time>
      </trkpt>
      <trkpt lat="43.55284" lon="6.82454">
        <ele>180.2</ele>
        <time>2025-01-10T08:19:59.000Z</time>
      </trkpt>
      <trkpt lat="43.55283" lon="6.82449">
        <ele>179.8</ele>
        <time>2025-01-10T08:19:58.000Z</time>
      </trkpt>
      <trkpt lat="43.55283" lon="6.82443">
        <ele>179.6</ele>
        <time>2025-01-10T08:19:57.000Z</time>
      </trkpt>
      <trkpt lat="43.55283" lon="6.82438">
        <ele>179.5</ele>
        <time>2025-01-10T08:19:56.000Z</time>
      </trkpt>
      <trkpt lat="43.55284" lon="6.82434">
        <ele>179.4</ele>
        <time>2025-01-10T08:19:55.000Z</time>
      </trkpt>
      <trkpt lat="43.55284" lon="6.8243">
        <ele>179.3</ele>
        <time>2025-01-10T08:19:54.000Z</time>
      </trkpt>
      <trkpt lat="43.55285" lon="6.82426">
        <ele>179.2</ele>
        <time>2025-01-10T08:19:53.000Z</time>
      </trkpt>
      <trkpt lat="43.55286" lon="6.82423">
        <ele>179.1</ele>
        <time>2025-01-10T08:19:52.000Z</time>
      </trkpt>
      <trkpt lat="43.55286" lon="6.82423">
        <ele>179.1</ele>
        <time>2025-01-10T08:19:51.000Z</time>
      </trkpt>
      <trkpt lat="43.55286" lon="6.82423">
        <ele>179.1</ele>
        <time>2025-01-10T08:19:50.000Z</time>
      </trkpt>
      <trkpt lat="43.55286" lon="6.82423">
        <ele>179.1</ele>
        <time>2025-01-10T08:19:49.000Z</time>
      </trkpt>
      <trkpt lat="43.55286" lon="6.82423">
        <ele>179.1</ele>
        <time>2025-01-10T08:19:48.000Z</time>
      </trkpt>
      <trkpt lat="43.55286" lon="6.82423">
        <ele>179.1</ele>
        <time>2025-01-10T08:19:47.000Z</time>
      </trkpt>
      <trkpt lat="43.55286" lon="6.82423">
        <ele>179.1</ele>
        <time>2025-01-10T08:19:46.000Z</time>
      </trkpt>
      <trkpt lat="43.55286" lon="6.82423">
        <ele>179.1</ele>
        <time>2025-01-10T08:19:45.000Z</time>
      </trkpt>
      <trkpt lat="43.55286" lon="6.82423">
        <ele>179.1</ele>
        <time>2025-01-10T08:19:44.000Z</time>
      </trkpt>
      <trkpt lat="43.55286" lon="6.82423">
        <ele>179.1</ele>
        <time>2025-01-10T08:19:43.000Z</time>
      </trkpt>
      <trkpt lat="43.55286" lon="6.82423">
        <ele>179.1</ele>
        <time>2025-01-10T08:19:42.000Z</time>
      </trkpt>
      <trkpt lat="43.55286" lon="6.82423">
        <ele>179.1</ele>
        <time>2025-01-10T08:19:41.000Z</time>
      </trkpt>
      <trkpt lat="43.55286" lon="6.82423">
        <ele>179.1</ele>
        <time>2025-01-10T08:19:40.000Z</time>
      </trkpt>
      <trkpt lat="43.55285" lon="6.82424">
        <ele>179</ele>
        <time>2025-01-10T08:19:39.000Z</time>
      </trkpt>
      <trkpt lat="43.55285" lon="6.82425">
        <ele>179</ele>
        <time>2025-01-10T08:19:38.000Z</time>
      </trkpt>
      <trkpt lat="43.55283" lon="6.82426">
        <ele>179</ele>
        <time>2025-01-10T08:19:37.000Z</time>
      </trkpt>
      <trkpt lat="43.55282" lon="6.82427">
        <ele>179</ele>
        <time>2025-01-10T08:19:36.000Z</time>
      </trkpt>
      <trkpt lat="43.55282" lon="6.82428">
        <ele>179</ele>
        <time>2025-01-10T08:19:35.000Z</time>
      </trkpt>
      <trkpt lat="43.55282" lon="6.82427">
        <ele>179</ele>
        <time>2025-01-10T08:19:34.000Z</time>
      </trkpt>
      <trkpt lat="43.55282" lon="6.82427">
        <ele>179</ele>
        <time>2025-01-10T08:19:33.000Z</time>
      </trkpt>
      <trkpt lat="43.55283" lon="6.82427">
        <ele>179</ele>
        <time>2025-01-10T08:19:32.000Z</time>
      </trkpt>
      <trkpt lat="43.55283" lon="6.82427">
        <ele>179</ele>
        <time>2025-01-10T08:19:31.000Z</time>
      </trkpt>
      <trkpt lat="43.55283" lon="6.82427">
        <ele>178.9</ele>
        <time>2025-01-10T08:19:30.000Z</time>
      </trkpt>
      <trkpt lat="43.55283" lon="6.82426">
        <ele>178.9</ele>
        <time>2025-01-10T08:19:29.000Z</time>
      </trkpt>
      <trkpt lat="43.55284" lon="6.82425">
        <ele>178.9</ele>
        <time>2025-01-10T08:19:28.000Z</time>
      </trkpt>
      <trkpt lat="43.55284" lon="6.82424">
        <ele>178.9</ele>
        <time>2025-01-10T08:19:27.000Z</time>
      </trkpt>
      <trkpt lat="43.55285" lon="6.82422">
        <ele>178.9</ele>
        <time>2025-01-10T08:19:26.000Z</time>
      </trkpt>
      <trkpt lat="43.55286" lon="6.8242">
        <ele>178.9</ele>
        <time>2025-01-10T08:19:25.000Z</time>
      </trkpt>
      <trkpt lat="43.55289" lon="6.82416">
        <ele>178.8</ele>
        <time>2025-01-10T08:19:24.000Z</time>
      </trkpt>
      <trkpt lat="43.55291" lon="6.82414">
        <ele>178.8</ele>
        <time>2025-01-10T08:19:23.000Z</time>
      </trkpt>
      <trkpt lat="43.55294" lon="6.82411">
        <ele>178.8</ele>
        <time>2025-01-10T08:19:22.000Z</time>
      </trkpt>
      <trkpt lat="43.55297" lon="6.82409">
        <ele>178.7</ele>
        <time>2025-01-10T08:19:21.000Z</time>
      </trkpt>
      <trkpt lat="43.55301" lon="6.82406">
        <ele>178.7</ele>
        <time>2025-01-10T08:19:20.000Z</time>
      </trkpt>
      <trkpt lat="43.55303" lon="6.82402">
        <ele>178.6</ele>
        <time>2025-01-10T08:19:19.000Z</time>
      </trkpt>
      <trkpt lat="43.55306" lon="6.82398">
        <ele>178.6</ele>
        <time>2025-01-10T08:19:18.000Z</time>
      </trkpt>
      <trkpt lat="43.55309" lon="6.82393">
        <ele>178.5</ele>
        <time>2025-01-10T08:19:17.000Z</time>
      </trkpt>
      <trkpt lat="43.55311" lon="6.8239">
        <ele>178.5</ele>
        <time>2025-01-10T08:19:16.000Z</time>
      </trkpt>
      <trkpt lat="43.55314" lon="6.82385">
        <ele>178.5</ele>
        <time>2025-01-10T08:19:15.000Z</time>
      </trkpt>
      <trkpt lat="43.55318" lon="6.8238">
        <ele>178.4</ele>
        <time>2025-01-10T08:19:14.000Z</time>
      </trkpt>
      <trkpt lat="43.55321" lon="6.82375">
        <ele>178.4</ele>
        <time>2025-01-10T08:19:13.000Z</time>
      </trkpt>
      <trkpt lat="43.55323" lon="6.82371">
        <ele>178.4</ele>
        <time>2025-01-10T08:19:12.000Z</time>
      </trkpt>
      <trkpt lat="43.55326" lon="6.82366">
        <ele>178.4</ele>
        <time>2025-01-10T08:19:11.000Z</time>
      </trkpt>
      <trkpt lat="43.55328" lon="6.82362">
        <ele>178.4</ele>
        <time>2025-01-10T08:19:10.000Z</time>
      </trkpt>
      <trkpt lat="43.55331" lon="6.82356">
        <ele>178.4</ele>
        <time>2025-01-10T08:19:09.000Z</time>
      </trkpt>
      <trkpt lat="43.55334" lon="6.82351">
        <ele>178.4</ele>
        <time>2025-01-10T08:19:08.000Z</time>
      </trkpt>
      <trkpt lat="43.55336" lon="6.82347">
        <ele>178.5</ele>
        <time>2025-01-10T08:19:07.000Z</time>
      </trkpt>
      <trkpt lat="43.55339" lon="6.82341">
        <ele>178.6</ele>
        <time>2025-01-10T08:19:06.000Z</time>
      </trkpt>
      <trkpt lat="43.55341" lon="6.82336">
        <ele>178.7</ele>
        <time>2025-01-10T08:19:05.000Z</time>
      </trkpt>
      <trkpt lat="43.55344" lon="6.82331">
        <ele>178.8</ele>
        <time>2025-01-10T08:19:04.000Z</time>
      </trkpt>
      <trkpt lat="43.55346" lon="6.82325">
        <ele>178.9</ele>
        <time>2025-01-10T08:19:03.000Z</time>
      </trkpt>
      <trkpt lat="43.55348" lon="6.8232">
        <ele>179</ele>
        <time>2025-01-10T08:19:02.000Z</time>
      </trkpt>
      <trkpt lat="43.55351" lon="6.82315">
        <ele>179</ele>
        <time>2025-01-10T08:19:01.000Z</time>
      </trkpt>
      <trkpt lat="43.55353" lon="6.82311">
        <ele>179.1</ele>
        <time>2025-01-10T08:19:00.000Z</time>
      </trkpt>
      <trkpt lat="43.55356" lon="6.82308">
        <ele>179.2</ele>
        <time>2025-01-10T08:18:59.000Z</time>
      </trkpt>
      <trkpt lat="43.55359" lon="6.82304">
        <ele>179.3</ele>
        <time>2025-01-10T08:18:58.000Z</time>
      </trkpt>
      <trkpt lat="43.55362" lon="6.82301">
        <ele>179.4</ele>
        <time>2025-01-10T08:18:57.000Z</time>
      </trkpt>
      <trkpt lat="43.55367" lon="6.82297">
        <ele>179.4</ele>
        <time>2025-01-10T08:18:56.000Z</time>
      </trkpt>
      <trkpt lat="43.5537" lon="6.82294">
        <ele>179.5</ele>
        <time>2025-01-10T08:18:55.000Z</time>
      </trkpt>
      <trkpt lat="43.55374" lon="6.82291">
        <ele>179.6</ele>
        <time>2025-01-10T08:18:54.000Z</time>
      </trkpt>
      <trkpt lat="43.55378" lon="6.82288">
        <ele>179.7</ele>
        <time>2025-01-10T08:18:53.000Z</time>
      </trkpt>
      <trkpt lat="43.55381" lon="6.82286">
        <ele>179.7</ele>
        <time>2025-01-10T08:18:52.000Z</time>
      </trkpt>
      <trkpt lat="43.55385" lon="6.82282">
        <ele>179.8</ele>
        <time>2025-01-10T08:18:51.000Z</time>
      </trkpt>
      <trkpt lat="43.55389" lon="6.8228">
        <ele>179.8</ele>
        <time>2025-01-10T08:18:50.000Z</time>
      </trkpt>
      <trkpt lat="43.55393" lon="6.82277">
        <ele>179.9</ele>
        <time>2025-01-10T08:18:49.000Z</time>
      </trkpt>
      <trkpt lat="43.55397" lon="6.82274">
        <ele>179.9</ele>
        <time>2025-01-10T08:18:48.000Z</time>
      </trkpt>
      <trkpt lat="43.55401" lon="6.82272">
        <ele>180</ele>
        <time>2025-01-10T08:18:47.000Z</time>
      </trkpt>
      <trkpt lat="43.55406" lon="6.8227">
        <ele>180</ele>
        <time>2025-01-10T08:18:46.000Z</time>
      </trkpt>
      <trkpt lat="43.5541" lon="6.82269">
        <ele>180.1</ele>
        <time>2025-01-10T08:18:45.000Z</time>
      </trkpt>
      <trkpt lat="43.55415" lon="6.82267">
        <ele>180.1</ele>
        <time>2025-01-10T08:18:44.000Z</time>
      </trkpt>
      <trkpt lat="43.55418" lon="6.82266">
        <ele>180.2</ele>
        <time>2025-01-10T08:18:43.000Z</time>
      </trkpt>
      <trkpt lat="43.55423" lon="6.82264">
        <ele>180.3</ele>
        <time>2025-01-10T08:18:42.000Z</time>
      </trkpt>
      <trkpt lat="43.55427" lon="6.82262">
        <ele>180.3</ele>
        <time>2025-01-10T08:18:41.000Z</time>
      </trkpt>
      <trkpt lat="43.55431" lon="6.82259">
        <ele>180.3</ele>
        <time>2025-01-10T08:18:40.000Z</time>
      </trkpt>
      <trkpt lat="43.55434" lon="6.82257">
        <ele>180.4</ele>
        <time>2025-01-10T08:18:39.000Z</time>
      </trkpt>
      <trkpt lat="43.55438" lon="6.82254">
        <ele>180.4</ele>
        <time>2025-01-10T08:18:38.000Z</time>
      </trkpt>
      <trkpt lat="43.55441" lon="6.82248">
        <ele>180.5</ele>
        <time>2025-01-10T08:18:37.000Z</time>
      </trkpt>
      <trkpt lat="43.55444" lon="6.82243">
        <ele>180.5</ele>
        <time>2025-01-10T08:18:36.000Z</time>
      </trkpt>
      <trkpt lat="43.55446" lon="6.8224">
        <ele>180.5</ele>
        <time>2025-01-10T08:18:35.000Z</time>
      </trkpt>
      <trkpt lat="43.55449" lon="6.82236">
        <ele>180.6</ele>
        <time>2025-01-10T08:18:34.000Z</time>
      </trkpt>
      <trkpt lat="43.55454" lon="6.82231">
        <ele>180.6</ele>
        <time>2025-01-10T08:18:33.000Z</time>
      </trkpt>
      <trkpt lat="43.55457" lon="6.82227">
        <ele>180.7</ele>
        <time>2025-01-10T08:18:32.000Z</time>
      </trkpt>
      <trkpt lat="43.5546" lon="6.82225">
        <ele>180.7</ele>
        <time>2025-01-10T08:18:31.000Z</time>
      </trkpt>
      <trkpt lat="43.55464" lon="6.8222">
        <ele>180.8</ele>
        <time>2025-01-10T08:18:30.000Z</time>
      </trkpt>
      <trkpt lat="43.55466" lon="6.82217">
        <ele>180.8</ele>
        <time>2025-01-10T08:18:29.000Z</time>
      </trkpt>
      <trkpt lat="43.55469" lon="6.82212">
        <ele>180.9</ele>
        <time>2025-01-10T08:18:28.000Z</time>
      </trkpt>
      <trkpt lat="43.55472" lon="6.82208">
        <ele>180.9</ele>
        <time>2025-01-10T08:18:27.000Z</time>
      </trkpt>
      <trkpt lat="43.55474" lon="6.82204">
        <ele>181</ele>
        <time>2025-01-10T08:18:26.000Z</time>
      </trkpt>
      <trkpt lat="43.55478" lon="6.82201">
        <ele>181</ele>
        <time>2025-01-10T08:18:25.000Z</time>
      </trkpt>
      <trkpt lat="43.5548" lon="6.82198">
        <ele>181.1</ele>
        <time>2025-01-10T08:18:24.000Z</time>
      </trkpt>
      <trkpt lat="43.55483" lon="6.82196">
        <ele>181.1</ele>
        <time>2025-01-10T08:18:23.000Z</time>
      </trkpt>
      <trkpt lat="43.55484" lon="6.82194">
        <ele>181.1</ele>
        <time>2025-01-10T08:18:22.000Z</time>
      </trkpt>
      <trkpt lat="43.55487" lon="6.82192">
        <ele>181.2</ele>
        <time>2025-01-10T08:18:21.000Z</time>
      </trkpt>
      <trkpt lat="43.5549" lon="6.82189">
        <ele>181.1</ele>
        <time>2025-01-10T08:18:20.000Z</time>
      </trkpt>
      <trkpt lat="43.55492" lon="6.82185">
        <ele>181.1</ele>
        <time>2025-01-10T08:18:19.000Z</time>
      </trkpt>
      <trkpt lat="43.55494" lon="6.82181">
        <ele>181.1</ele>
        <time>2025-01-10T08:18:18.000Z</time>
      </trkpt>
      <trkpt lat="43.55495" lon="6.82176">
        <ele>181.1</ele>
        <time>2025-01-10T08:18:17.000Z</time>
      </trkpt>
      <trkpt lat="43.55496" lon="6.82171">
        <ele>181</ele>
        <time>2025-01-10T08:18:16.000Z</time>
      </trkpt>
      <trkpt lat="43.55498" lon="6.82166">
        <ele>181</ele>
        <time>2025-01-10T08:18:15.000Z</time>
      </trkpt>
      <trkpt lat="43.55499" lon="6.82161">
        <ele>180.9</ele>
        <time>2025-01-10T08:18:14.000Z</time>
      </trkpt>
      <trkpt lat="43.55501" lon="6.82158">
        <ele>180.9</ele>
        <time>2025-01-10T08:18:13.000Z</time>
      </trkpt>
      <trkpt lat="43.55503" lon="6.82154">
        <ele>180.9</ele>
        <time>2025-01-10T08:18:12.000Z</time>
      </trkpt>
      <trkpt lat="43.55505" lon="6.82149">
        <ele>180.8</ele>
        <time>2025-01-10T08:18:11.000Z</time>
      </trkpt>
      <trkpt lat="43.55507" lon="6.82143">
        <ele>180.8</ele>
        <time>2025-01-10T08:18:10.000Z</time>
      </trkpt>
      <trkpt lat="43.55509" lon="6.82139">
        <ele>180.8</ele>
        <time>2025-01-10T08:18:09.000Z</time>
      </trkpt>
      <trkpt lat="43.55511" lon="6.82134">
        <ele>180.7</ele>
        <time>2025-01-10T08:18:08.000Z</time>
      </trkpt>
      <trkpt lat="43.55513" lon="6.82129">
        <ele>180.7</ele>
        <time>2025-01-10T08:18:07.000Z</time>
      </trkpt>
      <trkpt lat="43.55515" lon="6.82123">
        <ele>180.7</ele>
        <time>2025-01-10T08:18:06.000Z</time>
      </trkpt>
      <trkpt lat="43.55517" lon="6.82119">
        <ele>180.7</ele>
        <time>2025-01-10T08:18:05.000Z</time>
      </trkpt>
      <trkpt lat="43.55519" lon="6.82116">
        <ele>180.7</ele>
        <time>2025-01-10T08:18:04.000Z</time>
      </trkpt>
      <trkpt lat="43.55522" lon="6.82112">
        <ele>180.7</ele>
        <time>2025-01-10T08:18:03.000Z</time>
      </trkpt>
      <trkpt lat="43.55524" lon="6.82109">
        <ele>180.7</ele>
        <time>2025-01-10T08:18:02.000Z</time>
      </trkpt>
      <trkpt lat="43.55527" lon="6.82104">
        <ele>180.7</ele>
        <time>2025-01-10T08:18:01.000Z</time>
      </trkpt>
      <trkpt lat="43.55529" lon="6.821">
        <ele>180.7</ele>
        <time>2025-01-10T08:18:00.000Z</time>
      </trkpt>
      <trkpt lat="43.5553" lon="6.82096">
        <ele>180.6</ele>
        <time>2025-01-10T08:17:59.000Z</time>
      </trkpt>
      <trkpt lat="43.55531" lon="6.8209">
        <ele>180.6</ele>
        <time>2025-01-10T08:17:58.000Z</time>
      </trkpt>
      <trkpt lat="43.55533" lon="6.82085">
        <ele>180.6</ele>
        <time>2025-01-10T08:17:57.000Z</time>
      </trkpt>
      <trkpt lat="43.55534" lon="6.82081">
        <ele>180.5</ele>
        <time>2025-01-10T08:17:56.000Z</time>
      </trkpt>
      <trkpt lat="43.55536" lon="6.82078">
        <ele>180.5</ele>
        <time>2025-01-10T08:17:55.000Z</time>
      </trkpt>
      <trkpt lat="43.55538" lon="6.82073">
        <ele>180.4</ele>
        <time>2025-01-10T08:17:54.000Z</time>
      </trkpt>
      <trkpt lat="43.55539" lon="6.8207">
        <ele>180.3</ele>
        <time>2025-01-10T08:17:53.000Z</time>
      </trkpt>
      <trkpt lat="43.55539" lon="6.82064">
        <ele>180.2</ele>
        <time>2025-01-10T08:17:52.000Z</time>
      </trkpt>
      <trkpt lat="43.5554" lon="6.8206">
        <ele>180.1</ele>
        <time>2025-01-10T08:17:51.000Z</time>
      </trkpt>
      <trkpt lat="43.5554" lon="6.82055">
        <ele>180</ele>
        <time>2025-01-10T08:17:50.000Z</time>
      </trkpt>
      <trkpt lat="43.5554" lon="6.8205">
        <ele>179.9</ele>
        <time>2025-01-10T08:17:49.000Z</time>
      </trkpt>
      <trkpt lat="43.55541" lon="6.82045">
        <ele>179.7</ele>
        <time>2025-01-10T08:17:48.000Z</time>
      </trkpt>
      <trkpt lat="43.55542" lon="6.8204">
        <ele>179.6</ele>
        <time>2025-01-10T08:17:47.000Z</time>
      </trkpt>
      <trkpt lat="43.55543" lon="6.82036">
        <ele>179.5</ele>
        <time>2025-01-10T08:17:46.000Z</time>
      </trkpt>
      <trkpt lat="43.55545" lon="6.82031">
        <ele>179.3</ele>
        <time>2025-01-10T08:17:45.000Z</time>
      </trkpt>
      <trkpt lat="43.55547" lon="6.82027">
        <ele>179.2</ele>
        <time>2025-01-10T08:17:44.000Z</time>
      </trkpt>
      <trkpt lat="43.55549" lon="6.82023">
        <ele>179</ele>
        <time>2025-01-10T08:17:43.000Z</time>
      </trkpt>
      <trkpt lat="43.5555" lon="6.8202">
        <ele>178.9</ele>
        <time>2025-01-10T08:17:42.000Z</time>
      </trkpt>
      <trkpt lat="43.55552" lon="6.82016">
        <ele>178.8</ele>
        <time>2025-01-10T08:17:41.000Z</time>
      </trkpt>
      <trkpt lat="43.55554" lon="6.82012">
        <ele>178.6</ele>
        <time>2025-01-10T08:17:40.000Z</time>
      </trkpt>
      <trkpt lat="43.55557" lon="6.82008">
        <ele>178.4</ele>
        <time>2025-01-10T08:17:39.000Z</time>
      </trkpt>
      <trkpt lat="43.55558" lon="6.82004">
        <ele>178.2</ele>
        <time>2025-01-10T08:17:38.000Z</time>
      </trkpt>
      <trkpt lat="43.55559" lon="6.82001">
        <ele>178.1</ele>
        <time>2025-01-10T08:17:37.000Z</time>
      </trkpt>
      <trkpt lat="43.5556" lon="6.81995">
        <ele>177.9</ele>
        <time>2025-01-10T08:17:36.000Z</time>
      </trkpt>
      <trkpt lat="43.5556" lon="6.81989">
        <ele>177.7</ele>
        <time>2025-01-10T08:17:35.000Z</time>
      </trkpt>
      <trkpt lat="43.55561" lon="6.81984">
        <ele>177.6</ele>
        <time>2025-01-10T08:17:34.000Z</time>
      </trkpt>
      <trkpt lat="43.55561" lon="6.81979">
        <ele>177.5</ele>
        <time>2025-01-10T08:17:33.000Z</time>
      </trkpt>
      <trkpt lat="43.55563" lon="6.81975">
        <ele>177.3</ele>
        <time>2025-01-10T08:17:32.000Z</time>
      </trkpt>
      <trkpt lat="43.55564" lon="6.81971">
        <ele>177.2</ele>
        <time>2025-01-10T08:17:31.000Z</time>
      </trkpt>
      <trkpt lat="43.55566" lon="6.81966">
        <ele>177</ele>
        <time>2025-01-10T08:17:30.000Z</time>
      </trkpt>
      <trkpt lat="43.55569" lon="6.81962">
        <ele>176.8</ele>
        <time>2025-01-10T08:17:29.000Z</time>
      </trkpt>
      <trkpt lat="43.5557" lon="6.81959">
        <ele>176.7</ele>
        <time>2025-01-10T08:17:28.000Z</time>
      </trkpt>
      <trkpt lat="43.55573" lon="6.81954">
        <ele>176.5</ele>
        <time>2025-01-10T08:17:27.000Z</time>
      </trkpt>
      <trkpt lat="43.55575" lon="6.81951">
        <ele>176.3</ele>
        <time>2025-01-10T08:17:26.000Z</time>
      </trkpt>
      <trkpt lat="43.55577" lon="6.81947">
        <ele>176.1</ele>
        <time>2025-01-10T08:17:25.000Z</time>
      </trkpt>
      <trkpt lat="43.55579" lon="6.81942">
        <ele>175.9</ele>
        <time>2025-01-10T08:17:24.000Z</time>
      </trkpt>
      <trkpt lat="43.55581" lon="6.81939">
        <ele>175.8</ele>
        <time>2025-01-10T08:17:23.000Z</time>
      </trkpt>
      <trkpt lat="43.55583" lon="6.81935">
        <ele>175.6</ele>
        <time>2025-01-10T08:17:22.000Z</time>
      </trkpt>
      <trkpt lat="43.55585" lon="6.8193">
        <ele>175.4</ele>
        <time>2025-01-10T08:17:21.000Z</time>
      </trkpt>
      <trkpt lat="43.55586" lon="6.81926">
        <ele>175.2</ele>
        <time>2025-01-10T08:17:20.000Z</time>
      </trkpt>
      <trkpt lat="43.55587" lon="6.81923">
        <ele>175.1</ele>
        <time>2025-01-10T08:17:19.000Z</time>
      </trkpt>
      <trkpt lat="43.55588" lon="6.81918">
        <ele>175</ele>
        <time>2025-01-10T08:17:18.000Z</time>
      </trkpt>
      <trkpt lat="43.55589" lon="6.81916">
        <ele>174.9</ele>
        <time>2025-01-10T08:17:17.000Z</time>
      </trkpt>
      <trkpt lat="43.5559" lon="6.81912">
        <ele>174.7</ele>
        <time>2025-01-10T08:17:16.000Z</time>
      </trkpt>
      <trkpt lat="43.5559" lon="6.81908">
        <ele>174.5</ele>
        <time>2025-01-10T08:17:15.000Z</time>
      </trkpt>
      <trkpt lat="43.5559" lon="6.81905">
        <ele>174.4</ele>
        <time>2025-01-10T08:17:14.000Z</time>
      </trkpt>
      <trkpt lat="43.55589" lon="6.81901">
        <ele>174.2</ele>
        <time>2025-01-10T08:17:13.000Z</time>
      </trkpt>
      <trkpt lat="43.55588" lon="6.81896">
        <ele>174</ele>
        <time>2025-01-10T08:17:12.000Z</time>
      </trkpt>
      <trkpt lat="43.55587" lon="6.81892">
        <ele>173.8</ele>
        <time>2025-01-10T08:17:11.000Z</time>
      </trkpt>
      <trkpt lat="43.55587" lon="6.81888">
        <ele>173.6</ele>
        <time>2025-01-10T08:17:10.000Z</time>
      </trkpt>
      <trkpt lat="43.55587" lon="6.81883">
        <ele>173.4</ele>
        <time>2025-01-10T08:17:09.000Z</time>
      </trkpt>
      <trkpt lat="43.55587" lon="6.81879">
        <ele>173.3</ele>
        <time>2025-01-10T08:17:08.000Z</time>
      </trkpt>
      <trkpt lat="43.55587" lon="6.81873">
        <ele>173</ele>
        <time>2025-01-10T08:17:07.000Z</time>
      </trkpt>
      <trkpt lat="43.55588" lon="6.81868">
        <ele>172.8</ele>
        <time>2025-01-10T08:17:06.000Z</time>
      </trkpt>
      <trkpt lat="43.55588" lon="6.81864">
        <ele>172.7</ele>
        <time>2025-01-10T08:17:05.000Z</time>
      </trkpt>
      <trkpt lat="43.55588" lon="6.81859">
        <ele>172.5</ele>
        <time>2025-01-10T08:17:04.000Z</time>
      </trkpt>
      <trkpt lat="43.55588" lon="6.81854">
        <ele>172.3</ele>
        <time>2025-01-10T08:17:03.000Z</time>
      </trkpt>
      <trkpt lat="43.55587" lon="6.8185">
        <ele>172.2</ele>
        <time>2025-01-10T08:17:02.000Z</time>
      </trkpt>
      <trkpt lat="43.55587" lon="6.81846">
        <ele>172.1</ele>
        <time>2025-01-10T08:17:01.000Z</time>
      </trkpt>
      <trkpt lat="43.55586" lon="6.8184">
        <ele>171.9</ele>
        <time>2025-01-10T08:17:00.000Z</time>
      </trkpt>
      <trkpt lat="43.55586" lon="6.81836">
        <ele>171.8</ele>
        <time>2025-01-10T08:16:59.000Z</time>
      </trkpt>
      <trkpt lat="43.55585" lon="6.81829">
        <ele>171.6</ele>
        <time>2025-01-10T08:16:58.000Z</time>
      </trkpt>
      <trkpt lat="43.55585" lon="6.81824">
        <ele>171.4</ele>
        <time>2025-01-10T08:16:57.000Z</time>
      </trkpt>
      <trkpt lat="43.55585" lon="6.8182">
        <ele>171.3</ele>
        <time>2025-01-10T08:16:56.000Z</time>
      </trkpt>
      <trkpt lat="43.55585" lon="6.81815">
        <ele>171.1</ele>
        <time>2025-01-10T08:16:55.000Z</time>
      </trkpt>
      <trkpt lat="43.55584" lon="6.81809">
        <ele>171</ele>
        <time>2025-01-10T08:16:54.000Z</time>
      </trkpt>
      <trkpt lat="43.55584" lon="6.81804">
        <ele>170.8</ele>
        <time>2025-01-10T08:16:53.000Z</time>
      </trkpt>
      <trkpt lat="43.55584" lon="6.81799">
        <ele>170.7</ele>
        <time>2025-01-10T08:16:52.000Z</time>
      </trkpt>
      <trkpt lat="43.55584" lon="6.81794">
        <ele>170.6</ele>
        <time>2025-01-10T08:16:51.000Z</time>
      </trkpt>
      <trkpt lat="43.55584" lon="6.81789">
        <ele>170.4</ele>
        <time>2025-01-10T08:16:50.000Z</time>
      </trkpt>
      <trkpt lat="43.55584" lon="6.81784">
        <ele>170.3</ele>
        <time>2025-01-10T08:16:49.000Z</time>
      </trkpt>
      <trkpt lat="43.55584" lon="6.81779">
        <ele>170.2</ele>
        <time>2025-01-10T08:16:48.000Z</time>
      </trkpt>
      <trkpt lat="43.55584" lon="6.81775">
        <ele>170.1</ele>
        <time>2025-01-10T08:16:47.000Z</time>
      </trkpt>
      <trkpt lat="43.55583" lon="6.8177">
        <ele>170</ele>
        <time>2025-01-10T08:16:46.000Z</time>
      </trkpt>
      <trkpt lat="43.55583" lon="6.81764">
        <ele>169.9</ele>
        <time>2025-01-10T08:16:45.000Z</time>
      </trkpt>
      <trkpt lat="43.55583" lon="6.8176">
        <ele>169.8</ele>
        <time>2025-01-10T08:16:44.000Z</time>
      </trkpt>
      <trkpt lat="43.55583" lon="6.81756">
        <ele>169.7</ele>
        <time>2025-01-10T08:16:43.000Z</time>
      </trkpt>
      <trkpt lat="43.55582" lon="6.81751">
        <ele>169.6</ele>
        <time>2025-01-10T08:16:42.000Z</time>
      </trkpt>
      <trkpt lat="43.55582" lon="6.81747">
        <ele>169.5</ele>
        <time>2025-01-10T08:16:41.000Z</time>
      </trkpt>
      <trkpt lat="43.55582" lon="6.81741">
        <ele>169.4</ele>
        <time>2025-01-10T08:16:40.000Z</time>
      </trkpt>
      <trkpt lat="43.55581" lon="6.81735">
        <ele>169.2</ele>
        <time>2025-01-10T08:16:39.000Z</time>
      </trkpt>
      <trkpt lat="43.55581" lon="6.8173">
        <ele>169.1</ele>
        <time>2025-01-10T08:16:38.000Z</time>
      </trkpt>
      <trkpt lat="43.5558" lon="6.81726">
        <ele>169</ele>
        <time>2025-01-10T08:16:37.000Z</time>
      </trkpt>
      <trkpt lat="43.5558" lon="6.8172">
        <ele>168.8</ele>
        <time>2025-01-10T08:16:36.000Z</time>
      </trkpt>
      <trkpt lat="43.55579" lon="6.81714">
        <ele>168.6</ele>
        <time>2025-01-10T08:16:35.000Z</time>
      </trkpt>
      <trkpt lat="43.55579" lon="6.8171">
        <ele>168.5</ele>
        <time>2025-01-10T08:16:34.000Z</time>
      </trkpt>
      <trkpt lat="43.55579" lon="6.81705">
        <ele>168.4</ele>
        <time>2025-01-10T08:16:33.000Z</time>
      </trkpt>
      <trkpt lat="43.55578" lon="6.81698">
        <ele>168.3</ele>
        <time>2025-01-10T08:16:32.000Z</time>
      </trkpt>
      <trkpt lat="43.55578" lon="6.81693">
        <ele>168.2</ele>
        <time>2025-01-10T08:16:31.000Z</time>
      </trkpt>
      <trkpt lat="43.55578" lon="6.81688">
        <ele>168.1</ele>
        <time>2025-01-10T08:16:30.000Z</time>
      </trkpt>
      <trkpt lat="43.55578" lon="6.81683">
        <ele>168</ele>
        <time>2025-01-10T08:16:29.000Z</time>
      </trkpt>
      <trkpt lat="43.55578" lon="6.81678">
        <ele>167.9</ele>
        <time>2025-01-10T08:16:28.000Z</time>
      </trkpt>
      <trkpt lat="43.55577" lon="6.81671">
        <ele>167.8</ele>
        <time>2025-01-10T08:16:27.000Z</time>
      </trkpt>
      <trkpt lat="43.55577" lon="6.81665">
        <ele>167.7</ele>
        <time>2025-01-10T08:16:26.000Z</time>
      </trkpt>
      <trkpt lat="43.55576" lon="6.81661">
        <ele>167.6</ele>
        <time>2025-01-10T08:16:25.000Z</time>
      </trkpt>
      <trkpt lat="43.55576" lon="6.81655">
        <ele>167.5</ele>
        <time>2025-01-10T08:16:24.000Z</time>
      </trkpt>
      <trkpt lat="43.55575" lon="6.81649">
        <ele>167.4</ele>
        <time>2025-01-10T08:16:23.000Z</time>
      </trkpt>
      <trkpt lat="43.55574" lon="6.81644">
        <ele>167.2</ele>
        <time>2025-01-10T08:16:22.000Z</time>
      </trkpt>
      <trkpt lat="43.55574" lon="6.81638">
        <ele>167.1</ele>
        <time>2025-01-10T08:16:21.000Z</time>
      </trkpt>
      <trkpt lat="43.55574" lon="6.81634">
        <ele>167</ele>
        <time>2025-01-10T08:16:20.000Z</time>
      </trkpt>
      <trkpt lat="43.55574" lon="6.81628">
        <ele>166.8</ele>
        <time>2025-01-10T08:16:19.000Z</time>
      </trkpt>
      <trkpt lat="43.55574" lon="6.81621">
        <ele>166.7</ele>
        <time>2025-01-10T08:16:18.000Z</time>
      </trkpt>
      <trkpt lat="43.55575" lon="6.81616">
        <ele>166.5</ele>
        <time>2025-01-10T08:16:17.000Z</time>
      </trkpt>
      <trkpt lat="43.55576" lon="6.81611">
        <ele>166.4</ele>
        <time>2025-01-10T08:16:16.000Z</time>
      </trkpt>
      <trkpt lat="43.55576" lon="6.81606">
        <ele>166.2</ele>
        <time>2025-01-10T08:16:15.000Z</time>
      </trkpt>
      <trkpt lat="43.55577" lon="6.81599">
        <ele>166.1</ele>
        <time>2025-01-10T08:16:14.000Z</time>
      </trkpt>
      <trkpt lat="43.55578" lon="6.81594">
        <ele>165.9</ele>
        <time>2025-01-10T08:16:13.000Z</time>
      </trkpt>
      <trkpt lat="43.55579" lon="6.8159">
        <ele>165.8</ele>
        <time>2025-01-10T08:16:12.000Z</time>
      </trkpt>
      <trkpt lat="43.5558" lon="6.81584">
        <ele>165.7</ele>
        <time>2025-01-10T08:16:11.000Z</time>
      </trkpt>
      <trkpt lat="43.5558" lon="6.81579">
        <ele>165.5</ele>
        <time>2025-01-10T08:16:10.000Z</time>
      </trkpt>
      <trkpt lat="43.55581" lon="6.81574">
        <ele>165.4</ele>
        <time>2025-01-10T08:16:09.000Z</time>
      </trkpt>
      <trkpt lat="43.55582" lon="6.81569">
        <ele>165.3</ele>
        <time>2025-01-10T08:16:08.000Z</time>
      </trkpt>
      <trkpt lat="43.55582" lon="6.81565">
        <ele>165.2</ele>
        <time>2025-01-10T08:16:07.000Z</time>
      </trkpt>
      <trkpt lat="43.55583" lon="6.8156">
        <ele>165</ele>
        <time>2025-01-10T08:16:06.000Z</time>
      </trkpt>
      <trkpt lat="43.55584" lon="6.81554">
        <ele>164.9</ele>
        <time>2025-01-10T08:16:05.000Z</time>
      </trkpt>
      <trkpt lat="43.55585" lon="6.81549">
        <ele>164.7</ele>
        <time>2025-01-10T08:16:04.000Z</time>
      </trkpt>
      <trkpt lat="43.55586" lon="6.81545">
        <ele>164.6</ele>
        <time>2025-01-10T08:16:03.000Z</time>
      </trkpt>
      <trkpt lat="43.55587" lon="6.81539">
        <ele>164.5</ele>
        <time>2025-01-10T08:16:02.000Z</time>
      </trkpt>
      <trkpt lat="43.55587" lon="6.81535">
        <ele>164.3</ele>
        <time>2025-01-10T08:16:01.000Z</time>
      </trkpt>
      <trkpt lat="43.55588" lon="6.81529">
        <ele>164.2</ele>
        <time>2025-01-10T08:16:00.000Z</time>
      </trkpt>
      <trkpt lat="43.55589" lon="6.81525">
        <ele>164.1</ele>
        <time>2025-01-10T08:15:59.000Z</time>
      </trkpt>
      <trkpt lat="43.5559" lon="6.8152">
        <ele>163.9</ele>
        <time>2025-01-10T08:15:58.000Z</time>
      </trkpt>
      <trkpt lat="43.55591" lon="6.81515">
        <ele>163.8</ele>
        <time>2025-01-10T08:15:57.000Z</time>
      </trkpt>
      <trkpt lat="43.55592" lon="6.8151">
        <ele>163.7</ele>
        <time>2025-01-10T08:15:56.000Z</time>
      </trkpt>
      <trkpt lat="43.55594" lon="6.81505">
        <ele>163.7</ele>
        <time>2025-01-10T08:15:55.000Z</time>
      </trkpt>
      <trkpt lat="43.55595" lon="6.81501">
        <ele>163.6</ele>
        <time>2025-01-10T08:15:54.000Z</time>
      </trkpt>
      <trkpt lat="43.55597" lon="6.81497">
        <ele>163.5</ele>
        <time>2025-01-10T08:15:53.000Z</time>
      </trkpt>
      <trkpt lat="43.55598" lon="6.81493">
        <ele>163.4</ele>
        <time>2025-01-10T08:15:52.000Z</time>
      </trkpt>
      <trkpt lat="43.55601" lon="6.81488">
        <ele>163.3</ele>
        <time>2025-01-10T08:15:51.000Z</time>
      </trkpt>
      <trkpt lat="43.55604" lon="6.81484">
        <ele>163.2</ele>
        <time>2025-01-10T08:15:50.000Z</time>
      </trkpt>
      <trkpt lat="43.55607" lon="6.8148">
        <ele>163.2</ele>
        <time>2025-01-10T08:15:49.000Z</time>
      </trkpt>
      <trkpt lat="43.5561" lon="6.81477">
        <ele>163.1</ele>
        <time>2025-01-10T08:15:48.000Z</time>
      </trkpt>
      <trkpt lat="43.55613" lon="6.81474">
        <ele>163.1</ele>
        <time>2025-01-10T08:15:47.000Z</time>
      </trkpt>
      <trkpt lat="43.55617" lon="6.81472">
        <ele>163</ele>
        <time>2025-01-10T08:15:46.000Z</time>
      </trkpt>
      <trkpt lat="43.55619" lon="6.8147">
        <ele>163</ele>
        <time>2025-01-10T08:15:45.000Z</time>
      </trkpt>
      <trkpt lat="43.55623" lon="6.81467">
        <ele>163</ele>
        <time>2025-01-10T08:15:44.000Z</time>
      </trkpt>
      <trkpt lat="43.55625" lon="6.81464">
        <ele>163</ele>
        <time>2025-01-10T08:15:43.000Z</time>
      </trkpt>
      <trkpt lat="43.55628" lon="6.81462">
        <ele>162.9</ele>
        <time>2025-01-10T08:15:42.000Z</time>
      </trkpt>
      <trkpt lat="43.5563" lon="6.81459">
        <ele>162.9</ele>
        <time>2025-01-10T08:15:41.000Z</time>
      </trkpt>
      <trkpt lat="43.55632" lon="6.81457">
        <ele>162.9</ele>
        <time>2025-01-10T08:15:40.000Z</time>
      </trkpt>
      <trkpt lat="43.55635" lon="6.81454">
        <ele>162.9</ele>
        <time>2025-01-10T08:15:39.000Z</time>
      </trkpt>
      <trkpt lat="43.55639" lon="6.81451">
        <ele>162.9</ele>
        <time>2025-01-10T08:15:38.000Z</time>
      </trkpt>
      <trkpt lat="43.55643" lon="6.81449">
        <ele>162.8</ele>
        <time>2025-01-10T08:15:37.000Z</time>
      </trkpt>
      <trkpt lat="43.55645" lon="6.81447">
        <ele>162.8</ele>
        <time>2025-01-10T08:15:36.000Z</time>
      </trkpt>
      <trkpt lat="43.5565" lon="6.81445">
        <ele>162.8</ele>
        <time>2025-01-10T08:15:35.000Z</time>
      </trkpt>
      <trkpt lat="43.55654" lon="6.81444">
        <ele>162.8</ele>
        <time>2025-01-10T08:15:34.000Z</time>
      </trkpt>
      <trkpt lat="43.55657" lon="6.81443">
        <ele>162.8</ele>
        <time>2025-01-10T08:15:33.000Z</time>
      </trkpt>
      <trkpt lat="43.55661" lon="6.81441">
        <ele>162.8</ele>
        <time>2025-01-10T08:15:32.000Z</time>
      </trkpt>
      <trkpt lat="43.55664" lon="6.8144">
        <ele>162.8</ele>
        <time>2025-01-10T08:15:31.000Z</time>
      </trkpt>
      <trkpt lat="43.55667" lon="6.81438">
        <ele>162.7</ele>
        <time>2025-01-10T08:15:30.000Z</time>
      </trkpt>
      <trkpt lat="43.55671" lon="6.81435">
        <ele>162.7</ele>
        <time>2025-01-10T08:15:29.000Z</time>
      </trkpt>
      <trkpt lat="43.55674" lon="6.81432">
        <ele>162.7</ele>
        <time>2025-01-10T08:15:28.000Z</time>
      </trkpt>
      <trkpt lat="43.55678" lon="6.8143">
        <ele>162.7</ele>
        <time>2025-01-10T08:15:27.000Z</time>
      </trkpt>
      <trkpt lat="43.55682" lon="6.81428">
        <ele>162.7</ele>
        <time>2025-01-10T08:15:26.000Z</time>
      </trkpt>
      <trkpt lat="43.55685" lon="6.81427">
        <ele>162.7</ele>
        <time>2025-01-10T08:15:25.000Z</time>
      </trkpt>
      <trkpt lat="43.55689" lon="6.81426">
        <ele>162.7</ele>
        <time>2025-01-10T08:15:24.000Z</time>
      </trkpt>
      <trkpt lat="43.55693" lon="6.81425">
        <ele>162.7</ele>
        <time>2025-01-10T08:15:23.000Z</time>
      </trkpt>
      <trkpt lat="43.55697" lon="6.81424">
        <ele>162.6</ele>
        <time>2025-01-10T08:15:22.000Z</time>
      </trkpt>
      <trkpt lat="43.557" lon="6.81423">
        <ele>162.6</ele>
        <time>2025-01-10T08:15:21.000Z</time>
      </trkpt>
      <trkpt lat="43.55704" lon="6.81422">
        <ele>162.5</ele>
        <time>2025-01-10T08:15:20.000Z</time>
      </trkpt>
      <trkpt lat="43.55708" lon="6.81421">
        <ele>162.4</ele>
        <time>2025-01-10T08:15:19.000Z</time>
      </trkpt>
      <trkpt lat="43.55711" lon="6.81421">
        <ele>162.4</ele>
        <time>2025-01-10T08:15:18.000Z</time>
      </trkpt>
      <trkpt lat="43.55715" lon="6.8142">
        <ele>162.3</ele>
        <time>2025-01-10T08:15:17.000Z</time>
      </trkpt>
      <trkpt lat="43.55718" lon="6.8142">
        <ele>162.2</ele>
        <time>2025-01-10T08:15:16.000Z</time>
      </trkpt>
      <trkpt lat="43.55721" lon="6.8142">
        <ele>162.2</ele>
        <time>2025-01-10T08:15:15.000Z</time>
      </trkpt>
      <trkpt lat="43.55725" lon="6.81421">
        <ele>162.1</ele>
        <time>2025-01-10T08:15:14.000Z</time>
      </trkpt>
      <trkpt lat="43.55727" lon="6.81421">
        <ele>162.1</ele>
        <time>2025-01-10T08:15:13.000Z</time>
      </trkpt>
      <trkpt lat="43.55731" lon="6.81422">
        <ele>162</ele>
        <time>2025-01-10T08:15:12.000Z</time>
      </trkpt>
      <trkpt lat="43.55734" lon="6.81423">
        <ele>162</ele>
        <time>2025-01-10T08:15:11.000Z</time>
      </trkpt>
      <trkpt lat="43.55737" lon="6.81424">
        <ele>161.9</ele>
        <time>2025-01-10T08:15:10.000Z</time>
      </trkpt>
      <trkpt lat="43.55737" lon="6.81424">
        <ele>161.9</ele>
        <time>2025-01-10T08:15:09.000Z</time>
      </trkpt>
      <trkpt lat="43.55737" lon="6.81424">
        <ele>161.9</ele>
        <time>2025-01-10T08:15:08.000Z</time>
      </trkpt>
      <trkpt lat="43.55737" lon="6.81424">
        <ele>161.9</ele>
        <time>2025-01-10T08:15:07.000Z</time>
      </trkpt>
      <trkpt lat="43.55737" lon="6.81424">
        <ele>161.9</ele>
        <time>2025-01-10T08:15:06.000Z</time>
      </trkpt>
      <trkpt lat="43.55737" lon="6.81424">
        <ele>161.9</ele>
        <time>2025-01-10T08:15:05.000Z</time>
      </trkpt>
      <trkpt lat="43.55737" lon="6.81424">
        <ele>161.9</ele>
        <time>2025-01-10T08:15:04.000Z</time>
      </trkpt>
      <trkpt lat="43.55737" lon="6.81424">
        <ele>161.9</ele>
        <time>2025-01-10T08:15:03.000Z</time>
      </trkpt>
      <trkpt lat="43.55737" lon="6.81424">
        <ele>161.9</ele>
        <time>2025-01-10T08:15:02.000Z</time>
      </trkpt>
      <trkpt lat="43.55737" lon="6.81424">
        <ele>161.9</ele>
        <time>2025-01-10T08:15:01.000Z</time>
      </trkpt>
      <trkpt lat="43.55737" lon="6.81424">
        <ele>161.9</ele>
        <time>2025-01-10T08:15:00.000Z</time>
      </trkpt>
      <trkpt lat="43.55737" lon="6.81424">
        <ele>161.9</ele>
        <time>2025-01-10T08:14:59.000Z</time>
      </trkpt>
      <trkpt lat="43.55737" lon="6.81424">
        <ele>161.9</ele>
        <time>2025-01-10T08:14:58.000Z</time>
      </trkpt>
      <trkpt lat="43.55737" lon="6.81424">
        <ele>161.9</ele>
        <time>2025-01-10T08:14:57.000Z</time>
      </trkpt>
      <trkpt lat="43.55737" lon="6.81424">
        <ele>161.9</ele>
        <time>2025-01-10T08:14:56.000Z</time>
      </trkpt>
      <trkpt lat="43.55737" lon="6.81424">
        <ele>161.9</ele>
        <time>2025-01-10T08:14:55.000Z</time>
      </trkpt>
      <trkpt lat="43.55737" lon="6.81424">
        <ele>161.9</ele>
        <time>2025-01-10T08:14:54.000Z</time>
      </trkpt>
      <trkpt lat="43.55736" lon="6.81424">
        <ele>161.9</ele>
        <time>2025-01-10T08:14:53.000Z</time>
      </trkpt>
      <trkpt lat="43.55736" lon="6.81424">
        <ele>161.9</ele>
        <time>2025-01-10T08:14:52.000Z</time>
      </trkpt>
      <trkpt lat="43.55737" lon="6.81424">
        <ele>161.9</ele>
        <time>2025-01-10T08:14:51.000Z</time>
      </trkpt>
      <trkpt lat="43.55737" lon="6.81423">
        <ele>161.9</ele>
        <time>2025-01-10T08:14:50.000Z</time>
      </trkpt>
      <trkpt lat="43.55738" lon="6.81423">
        <ele>161.9</ele>
        <time>2025-01-10T08:14:49.000Z</time>
      </trkpt>
      <trkpt lat="43.55739" lon="6.81423">
        <ele>161.9</ele>
        <time>2025-01-10T08:14:48.000Z</time>
      </trkpt>
      <trkpt lat="43.55741" lon="6.81422">
        <ele>161.9</ele>
        <time>2025-01-10T08:14:47.000Z</time>
      </trkpt>
      <trkpt lat="43.55743" lon="6.81421">
        <ele>161.9</ele>
        <time>2025-01-10T08:14:46.000Z</time>
      </trkpt>
      <trkpt lat="43.55746" lon="6.8142">
        <ele>161.8</ele>
        <time>2025-01-10T08:14:45.000Z</time>
      </trkpt>
      <trkpt lat="43.55749" lon="6.81418">
        <ele>161.8</ele>
        <time>2025-01-10T08:14:44.000Z</time>
      </trkpt>
      <trkpt lat="43.55753" lon="6.81417">
        <ele>161.8</ele>
        <time>2025-01-10T08:14:43.000Z</time>
      </trkpt>
      <trkpt lat="43.55756" lon="6.81415">
        <ele>161.8</ele>
        <time>2025-01-10T08:14:42.000Z</time>
      </trkpt>
      <trkpt lat="43.55759" lon="6.81413">
        <ele>161.7</ele>
        <time>2025-01-10T08:14:41.000Z</time>
      </trkpt>
      <trkpt lat="43.55761" lon="6.81412">
        <ele>161.7</ele>
        <time>2025-01-10T08:14:40.000Z</time>
      </trkpt>
      <trkpt lat="43.55764" lon="6.81411">
        <ele>161.7</ele>
        <time>2025-01-10T08:14:39.000Z</time>
      </trkpt>
      <trkpt lat="43.55768" lon="6.8141">
        <ele>161.7</ele>
        <time>2025-01-10T08:14:38.000Z</time>
      </trkpt>
      <trkpt lat="43.55771" lon="6.81409">
        <ele>161.7</ele>
        <time>2025-01-10T08:14:37.000Z</time>
      </trkpt>
      <trkpt lat="43.55774" lon="6.81407">
        <ele>161.7</ele>
        <time>2025-01-10T08:14:36.000Z</time>
      </trkpt>
      <trkpt lat="43.55777" lon="6.81405">
        <ele>161.8</ele>
        <time>2025-01-10T08:14:35.000Z</time>
      </trkpt>
      <trkpt lat="43.55781" lon="6.81403">
        <ele>161.8</ele>
        <time>2025-01-10T08:14:34.000Z</time>
      </trkpt>
      <trkpt lat="43.55784" lon="6.81402">
        <ele>161.8</ele>
        <time>2025-01-10T08:14:33.000Z</time>
      </trkpt>
      <trkpt lat="43.55788" lon="6.81399">
        <ele>161.9</ele>
        <time>2025-01-10T08:14:32.000Z</time>
      </trkpt>
      <trkpt lat="43.55791" lon="6.81396">
        <ele>161.9</ele>
        <time>2025-01-10T08:14:31.000Z</time>
        <extensions>
          <visugpx:TrkExtension xmlns:visugpx="https://www.visugpx.com/editgpx/">
            <visugpx:node>1</visugpx:node>
            </visugpx:TrkExtension>
        </extensions>
      </trkpt>
    </trkseg>
  </trk>
</gpx>